<?xml version="1.0" encoding="UTF-8" standalone="no" ?>
<gpx xmlns="http://www.topografix.com/GPX/1/1" creator="www.cicloide.com" version="1.1" xmlns:xsi="http://www.w3.org/2001/XMLSchema-instance" xsi:schemaLocation="http://www.topografix.com/GPX/1/1 http://www.topografix.com/GPX/1/1/gpx.xsd">
  <trk>
    <name>www.cicloide.com 11041</name>
    <desc>www.cicloide.com 11041</desc>
    <trkseg>
      <trkpt lat="42.458762000" lon="-2.465680000">
        <ele>417.00</ele>
        <time>2012-10-27T09:04:47Z</time>
      </trkpt>
      <trkpt lat="42.458866000" lon="-2.465599000">
        <ele>416.20</ele>
        <time>2012-10-27T09:05:08Z</time>
      </trkpt>
      <trkpt lat="42.458932000" lon="-2.465354000">
        <ele>409.90</ele>
        <time>2012-10-27T09:05:22Z</time>
      </trkpt>
      <trkpt lat="42.459217000" lon="-2.465422000">
        <ele>406.50</ele>
        <time>2012-10-27T09:05:35Z</time>
      </trkpt>
      <trkpt lat="42.459388000" lon="-2.465658000">
        <ele>405.10</ele>
        <time>2012-10-27T09:05:45Z</time>
      </trkpt>
      <trkpt lat="42.459311000" lon="-2.466139000">
        <ele>404.50</ele>
        <time>2012-10-27T09:05:59Z</time>
      </trkpt>
      <trkpt lat="42.459141000" lon="-2.466792000">
        <ele>401.70</ele>
        <time>2012-10-27T09:06:16Z</time>
      </trkpt>
      <trkpt lat="42.459131000" lon="-2.467287000">
        <ele>402.80</ele>
        <time>2012-10-27T09:06:29Z</time>
      </trkpt>
      <trkpt lat="42.459113000" lon="-2.467619000">
        <ele>402.90</ele>
        <time>2012-10-27T09:06:39Z</time>
      </trkpt>
      <trkpt lat="42.459123000" lon="-2.467661000">
        <ele>403.30</ele>
        <time>2012-10-27T09:06:58Z</time>
      </trkpt>
      <trkpt lat="42.459113000" lon="-2.467687000">
        <ele>403.20</ele>
        <time>2012-10-27T09:08:32Z</time>
      </trkpt>
      <trkpt lat="42.459110000" lon="-2.467676000">
        <ele>403.60</ele>
        <time>2012-10-27T09:09:02Z</time>
      </trkpt>
      <trkpt lat="42.459109000" lon="-2.467678000">
        <ele>403.50</ele>
        <time>2012-10-27T09:09:11Z</time>
      </trkpt>
      <trkpt lat="42.458919000" lon="-2.467923000">
        <ele>405.90</ele>
        <time>2012-10-27T09:09:21Z</time>
      </trkpt>
      <trkpt lat="42.458489000" lon="-2.468005000">
        <ele>407.70</ele>
        <time>2012-10-27T09:09:35Z</time>
      </trkpt>
      <trkpt lat="42.458243000" lon="-2.468225000">
        <ele>406.10</ele>
        <time>2012-10-27T09:09:45Z</time>
      </trkpt>
      <trkpt lat="42.458297000" lon="-2.468903000">
        <ele>408.30</ele>
        <time>2012-10-27T09:09:59Z</time>
      </trkpt>
      <trkpt lat="42.458333000" lon="-2.469903000">
        <ele>407.90</ele>
        <time>2012-10-27T09:10:18Z</time>
      </trkpt>
      <trkpt lat="42.458177000" lon="-2.470585000">
        <ele>407.10</ele>
        <time>2012-10-27T09:10:31Z</time>
      </trkpt>
      <trkpt lat="42.457985000" lon="-2.470933000">
        <ele>407.60</ele>
        <time>2012-10-27T09:10:39Z</time>
      </trkpt>
      <trkpt lat="42.457638000" lon="-2.471883000">
        <ele>408.40</ele>
        <time>2012-10-27T09:10:59Z</time>
      </trkpt>
      <trkpt lat="42.457510000" lon="-2.472043000">
        <ele>406.60</ele>
        <time>2012-10-27T09:11:02Z</time>
      </trkpt>
      <trkpt lat="42.457420000" lon="-2.472114000">
        <ele>405.60</ele>
        <time>2012-10-27T09:11:04Z</time>
      </trkpt>
      <trkpt lat="42.457299000" lon="-2.472723000">
        <ele>406.90</ele>
        <time>2012-10-27T09:11:18Z</time>
      </trkpt>
      <trkpt lat="42.457197000" lon="-2.472849000">
        <ele>407.10</ele>
        <time>2012-10-27T09:11:23Z</time>
      </trkpt>
      <trkpt lat="42.457006000" lon="-2.472853000">
        <ele>407.10</ele>
        <time>2012-10-27T09:11:30Z</time>
      </trkpt>
      <trkpt lat="42.456605000" lon="-2.473368000">
        <ele>409.30</ele>
        <time>2012-10-27T09:11:49Z</time>
      </trkpt>
      <trkpt lat="42.456452000" lon="-2.474073000">
        <ele>411.20</ele>
        <time>2012-10-27T09:12:05Z</time>
      </trkpt>
      <trkpt lat="42.456373000" lon="-2.474881000">
        <ele>411.60</ele>
        <time>2012-10-27T09:12:24Z</time>
      </trkpt>
      <trkpt lat="42.456092000" lon="-2.475794000">
        <ele>411.80</ele>
        <time>2012-10-27T09:12:45Z</time>
      </trkpt>
      <trkpt lat="42.455964000" lon="-2.476806000">
        <ele>408.50</ele>
        <time>2012-10-27T09:12:59Z</time>
      </trkpt>
      <trkpt lat="42.455945000" lon="-2.476912000">
        <ele>407.80</ele>
        <time>2012-10-27T09:13:00Z</time>
      </trkpt>
      <trkpt lat="42.455813000" lon="-2.477391000">
        <ele>406.10</ele>
        <time>2012-10-27T09:13:06Z</time>
      </trkpt>
      <trkpt lat="42.455503000" lon="-2.477485000">
        <ele>404.70</ele>
        <time>2012-10-27T09:13:11Z</time>
      </trkpt>
      <trkpt lat="42.455304000" lon="-2.477657000">
        <ele>404.70</ele>
        <time>2012-10-27T09:13:18Z</time>
      </trkpt>
      <trkpt lat="42.455256000" lon="-2.478001000">
        <ele>405.80</ele>
        <time>2012-10-27T09:13:32Z</time>
      </trkpt>
      <trkpt lat="42.455129000" lon="-2.478749000">
        <ele>405.30</ele>
        <time>2012-10-27T09:13:49Z</time>
      </trkpt>
      <trkpt lat="42.455027000" lon="-2.479531000">
        <ele>405.10</ele>
        <time>2012-10-27T09:14:05Z</time>
      </trkpt>
      <trkpt lat="42.454774000" lon="-2.480125000">
        <ele>403.80</ele>
        <time>2012-10-27T09:14:19Z</time>
      </trkpt>
      <trkpt lat="42.454279000" lon="-2.481147000">
        <ele>404.10</ele>
        <time>2012-10-27T09:14:43Z</time>
      </trkpt>
      <trkpt lat="42.453907000" lon="-2.482059000">
        <ele>403.50</ele>
        <time>2012-10-27T09:15:04Z</time>
      </trkpt>
      <trkpt lat="42.453588000" lon="-2.483064000">
        <ele>404.30</ele>
        <time>2012-10-27T09:15:27Z</time>
      </trkpt>
      <trkpt lat="42.453436000" lon="-2.483855000">
        <ele>406.40</ele>
        <time>2012-10-27T09:15:44Z</time>
      </trkpt>
      <trkpt lat="42.453205000" lon="-2.485295000">
        <ele>406.10</ele>
        <time>2012-10-27T09:16:14Z</time>
      </trkpt>
      <trkpt lat="42.453080000" lon="-2.486558000">
        <ele>408.30</ele>
        <time>2012-10-27T09:16:38Z</time>
      </trkpt>
      <trkpt lat="42.452806000" lon="-2.487415000">
        <ele>408.60</ele>
        <time>2012-10-27T09:16:57Z</time>
      </trkpt>
      <trkpt lat="42.452265000" lon="-2.488779000">
        <ele>410.80</ele>
        <time>2012-10-27T09:17:29Z</time>
      </trkpt>
      <trkpt lat="42.451820000" lon="-2.489908000">
        <ele>413.50</ele>
        <time>2012-10-27T09:17:53Z</time>
      </trkpt>
      <trkpt lat="42.451483000" lon="-2.491159000">
        <ele>414.40</ele>
        <time>2012-10-27T09:18:21Z</time>
      </trkpt>
      <trkpt lat="42.451128000" lon="-2.492460000">
        <ele>414.90</ele>
        <time>2012-10-27T09:18:51Z</time>
      </trkpt>
      <trkpt lat="42.450838000" lon="-2.493655000">
        <ele>416.70</ele>
        <time>2012-10-27T09:19:17Z</time>
      </trkpt>
      <trkpt lat="42.450531000" lon="-2.494609000">
        <ele>415.80</ele>
        <time>2012-10-27T09:19:38Z</time>
      </trkpt>
      <trkpt lat="42.450366000" lon="-2.495061000">
        <ele>418.40</ele>
        <time>2012-10-27T09:19:48Z</time>
      </trkpt>
      <trkpt lat="42.450269000" lon="-2.495028000">
        <ele>418.90</ele>
        <time>2012-10-27T09:19:53Z</time>
      </trkpt>
      <trkpt lat="42.450001000" lon="-2.495063000">
        <ele>419.30</ele>
        <time>2012-10-27T09:20:02Z</time>
      </trkpt>
      <trkpt lat="42.449993000" lon="-2.495774000">
        <ele>422.60</ele>
        <time>2012-10-27T09:20:18Z</time>
      </trkpt>
      <trkpt lat="42.449955000" lon="-2.496763000">
        <ele>425.40</ele>
        <time>2012-10-27T09:20:40Z</time>
      </trkpt>
      <trkpt lat="42.449896000" lon="-2.497609000">
        <ele>430.30</ele>
        <time>2012-10-27T09:21:01Z</time>
      </trkpt>
      <trkpt lat="42.449599000" lon="-2.497951000">
        <ele>432.00</ele>
        <time>2012-10-27T09:21:13Z</time>
      </trkpt>
      <trkpt lat="42.449111000" lon="-2.498233000">
        <ele>431.70</ele>
        <time>2012-10-27T09:21:31Z</time>
      </trkpt>
      <trkpt lat="42.448952000" lon="-2.498222000">
        <ele>430.00</ele>
        <time>2012-10-27T09:21:34Z</time>
      </trkpt>
      <trkpt lat="42.448785000" lon="-2.498421000">
        <ele>430.10</ele>
        <time>2012-10-27T09:21:40Z</time>
      </trkpt>
      <trkpt lat="42.448774000" lon="-2.498522000">
        <ele>429.90</ele>
        <time>2012-10-27T09:21:41Z</time>
      </trkpt>
      <trkpt lat="42.448685000" lon="-2.498801000">
        <ele>429.00</ele>
        <time>2012-10-27T09:21:47Z</time>
      </trkpt>
      <trkpt lat="42.448533000" lon="-2.499013000">
        <ele>428.80</ele>
        <time>2012-10-27T09:21:52Z</time>
      </trkpt>
      <trkpt lat="42.448311000" lon="-2.499295000">
        <ele>429.50</ele>
        <time>2012-10-27T09:21:59Z</time>
      </trkpt>
      <trkpt lat="42.448217000" lon="-2.499584000">
        <ele>428.30</ele>
        <time>2012-10-27T09:22:04Z</time>
      </trkpt>
      <trkpt lat="42.448047000" lon="-2.499849000">
        <ele>427.90</ele>
        <time>2012-10-27T09:22:11Z</time>
      </trkpt>
      <trkpt lat="42.447768000" lon="-2.499884000">
        <ele>430.00</ele>
        <time>2012-10-27T09:22:18Z</time>
      </trkpt>
      <trkpt lat="42.447631000" lon="-2.500003000">
        <ele>431.80</ele>
        <time>2012-10-27T09:22:23Z</time>
      </trkpt>
      <trkpt lat="42.447290000" lon="-2.500418000">
        <ele>434.00</ele>
        <time>2012-10-27T09:22:39Z</time>
      </trkpt>
      <trkpt lat="42.447157000" lon="-2.500588000">
        <ele>434.50</ele>
        <time>2012-10-27T09:22:46Z</time>
      </trkpt>
      <trkpt lat="42.447290000" lon="-2.501044000">
        <ele>435.40</ele>
        <time>2012-10-27T09:22:58Z</time>
      </trkpt>
      <trkpt lat="42.447704000" lon="-2.502244000">
        <ele>435.50</ele>
        <time>2012-10-27T09:23:26Z</time>
      </trkpt>
      <trkpt lat="42.448028000" lon="-2.503129000">
        <ele>435.90</ele>
        <time>2012-10-27T09:23:47Z</time>
      </trkpt>
      <trkpt lat="42.448176000" lon="-2.503555000">
        <ele>436.80</ele>
        <time>2012-10-27T09:23:59Z</time>
      </trkpt>
      <trkpt lat="42.448095000" lon="-2.503944000">
        <ele>439.50</ele>
        <time>2012-10-27T09:24:11Z</time>
      </trkpt>
      <trkpt lat="42.448090000" lon="-2.504440000">
        <ele>441.40</ele>
        <time>2012-10-27T09:24:23Z</time>
      </trkpt>
      <trkpt lat="42.448044000" lon="-2.504656000">
        <ele>443.40</ele>
        <time>2012-10-27T09:24:29Z</time>
      </trkpt>
      <trkpt lat="42.447965000" lon="-2.504728000">
        <ele>443.30</ele>
        <time>2012-10-27T09:24:32Z</time>
      </trkpt>
      <trkpt lat="42.447589000" lon="-2.504888000">
        <ele>444.20</ele>
        <time>2012-10-27T09:24:48Z</time>
      </trkpt>
      <trkpt lat="42.447243000" lon="-2.505056000">
        <ele>445.20</ele>
        <time>2012-10-27T09:25:02Z</time>
      </trkpt>
      <trkpt lat="42.447015000" lon="-2.505167000">
        <ele>445.00</ele>
        <time>2012-10-27T09:25:10Z</time>
      </trkpt>
      <trkpt lat="42.446773000" lon="-2.505618000">
        <ele>439.80</ele>
        <time>2012-10-27T09:25:19Z</time>
      </trkpt>
      <trkpt lat="42.446707000" lon="-2.505890000">
        <ele>438.80</ele>
        <time>2012-10-27T09:25:23Z</time>
      </trkpt>
      <trkpt lat="42.446713000" lon="-2.506363000">
        <ele>437.40</ele>
        <time>2012-10-27T09:25:29Z</time>
      </trkpt>
      <trkpt lat="42.446745000" lon="-2.506697000">
        <ele>436.60</ele>
        <time>2012-10-27T09:25:35Z</time>
      </trkpt>
      <trkpt lat="42.446567000" lon="-2.507760000">
        <ele>436.20</ele>
        <time>2012-10-27T09:25:49Z</time>
      </trkpt>
      <trkpt lat="42.446535000" lon="-2.507937000">
        <ele>436.50</ele>
        <time>2012-10-27T09:25:52Z</time>
      </trkpt>
      <trkpt lat="42.446495000" lon="-2.508115000">
        <ele>436.60</ele>
        <time>2012-10-27T09:25:56Z</time>
      </trkpt>
      <trkpt lat="42.446438000" lon="-2.508739000">
        <ele>436.70</ele>
        <time>2012-10-27T09:26:04Z</time>
      </trkpt>
      <trkpt lat="42.446306000" lon="-2.509505000">
        <ele>437.80</ele>
        <time>2012-10-27T09:26:17Z</time>
      </trkpt>
      <trkpt lat="42.446048000" lon="-2.510085000">
        <ele>441.50</ele>
        <time>2012-10-27T09:26:30Z</time>
      </trkpt>
      <trkpt lat="42.445960000" lon="-2.510298000">
        <ele>443.10</ele>
        <time>2012-10-27T09:26:36Z</time>
      </trkpt>
      <trkpt lat="42.445654000" lon="-2.510835000">
        <ele>446.10</ele>
        <time>2012-10-27T09:26:53Z</time>
      </trkpt>
      <trkpt lat="42.445616000" lon="-2.511112000">
        <ele>442.60</ele>
        <time>2012-10-27T09:27:04Z</time>
      </trkpt>
      <trkpt lat="42.445620000" lon="-2.511293000">
        <ele>441.20</ele>
        <time>2012-10-27T09:27:07Z</time>
      </trkpt>
      <trkpt lat="42.445503000" lon="-2.511762000">
        <ele>442.90</ele>
        <time>2012-10-27T09:27:21Z</time>
      </trkpt>
      <trkpt lat="42.445274000" lon="-2.512297000">
        <ele>443.80</ele>
        <time>2012-10-27T09:27:35Z</time>
      </trkpt>
      <trkpt lat="42.444973000" lon="-2.512945000">
        <ele>442.40</ele>
        <time>2012-10-27T09:27:54Z</time>
      </trkpt>
      <trkpt lat="42.444959000" lon="-2.513073000">
        <ele>442.20</ele>
        <time>2012-10-27T09:27:56Z</time>
      </trkpt>
      <trkpt lat="42.444595000" lon="-2.513385000">
        <ele>440.70</ele>
        <time>2012-10-27T09:28:10Z</time>
      </trkpt>
      <trkpt lat="42.444451000" lon="-2.513269000">
        <ele>440.00</ele>
        <time>2012-10-27T09:28:15Z</time>
      </trkpt>
      <trkpt lat="42.444342000" lon="-2.512815000">
        <ele>439.70</ele>
        <time>2012-10-27T09:28:25Z</time>
      </trkpt>
      <trkpt lat="42.444192000" lon="-2.512294000">
        <ele>438.30</ele>
        <time>2012-10-27T09:28:34Z</time>
      </trkpt>
      <trkpt lat="42.443923000" lon="-2.512124000">
        <ele>439.30</ele>
        <time>2012-10-27T09:28:43Z</time>
      </trkpt>
      <trkpt lat="42.443894000" lon="-2.512160000">
        <ele>439.40</ele>
        <time>2012-10-27T09:28:43Z</time>
      </trkpt>
      <trkpt lat="42.443630000" lon="-2.512611000">
        <ele>439.40</ele>
        <time>2012-10-27T09:28:53Z</time>
      </trkpt>
      <trkpt lat="42.443260000" lon="-2.513214000">
        <ele>440.60</ele>
        <time>2012-10-27T09:29:09Z</time>
      </trkpt>
      <trkpt lat="42.442851000" lon="-2.513300000">
        <ele>442.20</ele>
        <time>2012-10-27T09:29:21Z</time>
      </trkpt>
      <trkpt lat="42.442244000" lon="-2.513226000">
        <ele>440.70</ele>
        <time>2012-10-27T09:29:37Z</time>
      </trkpt>
      <trkpt lat="42.441728000" lon="-2.513400000">
        <ele>441.00</ele>
        <time>2012-10-27T09:29:53Z</time>
      </trkpt>
      <trkpt lat="42.441443000" lon="-2.513384000">
        <ele>442.20</ele>
        <time>2012-10-27T09:30:01Z</time>
      </trkpt>
      <trkpt lat="42.441333000" lon="-2.513728000">
        <ele>443.70</ele>
        <time>2012-10-27T09:30:10Z</time>
      </trkpt>
      <trkpt lat="42.441490000" lon="-2.514271000">
        <ele>444.50</ele>
        <time>2012-10-27T09:30:24Z</time>
      </trkpt>
      <trkpt lat="42.441578000" lon="-2.514720000">
        <ele>445.20</ele>
        <time>2012-10-27T09:30:36Z</time>
      </trkpt>
      <trkpt lat="42.441548000" lon="-2.514771000">
        <ele>445.30</ele>
        <time>2012-10-27T09:30:38Z</time>
      </trkpt>
      <trkpt lat="42.441083000" lon="-2.514824000">
        <ele>444.30</ele>
        <time>2012-10-27T09:30:55Z</time>
      </trkpt>
      <trkpt lat="42.440444000" lon="-2.514871000">
        <ele>444.30</ele>
        <time>2012-10-27T09:31:14Z</time>
      </trkpt>
      <trkpt lat="42.439705000" lon="-2.515047000">
        <ele>445.20</ele>
        <time>2012-10-27T09:31:35Z</time>
      </trkpt>
      <trkpt lat="42.439174000" lon="-2.515339000">
        <ele>445.80</ele>
        <time>2012-10-27T09:31:51Z</time>
      </trkpt>
      <trkpt lat="42.438757000" lon="-2.515128000">
        <ele>446.80</ele>
        <time>2012-10-27T09:32:07Z</time>
      </trkpt>
      <trkpt lat="42.438446000" lon="-2.514742000">
        <ele>449.00</ele>
        <time>2012-10-27T09:32:22Z</time>
      </trkpt>
      <trkpt lat="42.438237000" lon="-2.514598000">
        <ele>450.70</ele>
        <time>2012-10-27T09:32:33Z</time>
      </trkpt>
      <trkpt lat="42.437829000" lon="-2.514434000">
        <ele>452.80</ele>
        <time>2012-10-27T09:32:52Z</time>
      </trkpt>
      <trkpt lat="42.437637000" lon="-2.514725000">
        <ele>458.40</ele>
        <time>2012-10-27T09:33:04Z</time>
      </trkpt>
      <trkpt lat="42.437455000" lon="-2.515167000">
        <ele>462.20</ele>
        <time>2012-10-27T09:33:20Z</time>
      </trkpt>
      <trkpt lat="42.437267000" lon="-2.515473000">
        <ele>467.60</ele>
        <time>2012-10-27T09:33:34Z</time>
      </trkpt>
      <trkpt lat="42.437037000" lon="-2.515680000">
        <ele>471.60</ele>
        <time>2012-10-27T09:33:48Z</time>
      </trkpt>
      <trkpt lat="42.436749000" lon="-2.515963000">
        <ele>476.20</ele>
        <time>2012-10-27T09:34:05Z</time>
      </trkpt>
      <trkpt lat="42.436589000" lon="-2.516265000">
        <ele>480.50</ele>
        <time>2012-10-27T09:34:17Z</time>
      </trkpt>
      <trkpt lat="42.436775000" lon="-2.516591000">
        <ele>481.40</ele>
        <time>2012-10-27T09:34:31Z</time>
      </trkpt>
      <trkpt lat="42.437172000" lon="-2.517171000">
        <ele>480.90</ele>
        <time>2012-10-27T09:34:52Z</time>
      </trkpt>
      <trkpt lat="42.437632000" lon="-2.517864000">
        <ele>481.00</ele>
        <time>2012-10-27T09:35:15Z</time>
      </trkpt>
      <trkpt lat="42.437850000" lon="-2.518447000">
        <ele>483.20</ele>
        <time>2012-10-27T09:35:32Z</time>
      </trkpt>
      <trkpt lat="42.438033000" lon="-2.519062000">
        <ele>486.10</ele>
        <time>2012-10-27T09:35:50Z</time>
      </trkpt>
      <trkpt lat="42.438221000" lon="-2.519447000">
        <ele>488.00</ele>
        <time>2012-10-27T09:36:04Z</time>
      </trkpt>
      <trkpt lat="42.438546000" lon="-2.519936000">
        <ele>491.90</ele>
        <time>2012-10-27T09:36:23Z</time>
      </trkpt>
      <trkpt lat="42.438804000" lon="-2.520594000">
        <ele>493.00</ele>
        <time>2012-10-27T09:36:42Z</time>
      </trkpt>
      <trkpt lat="42.439105000" lon="-2.521165000">
        <ele>497.50</ele>
        <time>2012-10-27T09:37:01Z</time>
      </trkpt>
      <trkpt lat="42.439296000" lon="-2.521734000">
        <ele>501.00</ele>
        <time>2012-10-27T09:37:20Z</time>
      </trkpt>
      <trkpt lat="42.439450000" lon="-2.522316000">
        <ele>505.40</ele>
        <time>2012-10-27T09:37:41Z</time>
      </trkpt>
      <trkpt lat="42.439654000" lon="-2.522806000">
        <ele>507.40</ele>
        <time>2012-10-27T09:38:00Z</time>
      </trkpt>
      <trkpt lat="42.439953000" lon="-2.523316000">
        <ele>510.10</ele>
        <time>2012-10-27T09:38:21Z</time>
      </trkpt>
      <trkpt lat="42.440102000" lon="-2.524023000">
        <ele>511.90</ele>
        <time>2012-10-27T09:38:42Z</time>
      </trkpt>
      <trkpt lat="42.439950000" lon="-2.524857000">
        <ele>517.50</ele>
        <time>2012-10-27T09:39:08Z</time>
      </trkpt>
      <trkpt lat="42.439908000" lon="-2.525542000">
        <ele>517.10</ele>
        <time>2012-10-27T09:39:29Z</time>
      </trkpt>
      <trkpt lat="42.439851000" lon="-2.526421000">
        <ele>517.20</ele>
        <time>2012-10-27T09:39:48Z</time>
      </trkpt>
      <trkpt lat="42.439807000" lon="-2.526941000">
        <ele>516.90</ele>
        <time>2012-10-27T09:39:57Z</time>
      </trkpt>
      <trkpt lat="42.439723000" lon="-2.528030000">
        <ele>510.20</ele>
        <time>2012-10-27T09:40:09Z</time>
      </trkpt>
      <trkpt lat="42.439608000" lon="-2.528799000">
        <ele>510.20</ele>
        <time>2012-10-27T09:40:16Z</time>
      </trkpt>
      <trkpt lat="42.439598000" lon="-2.529008000">
        <ele>508.50</ele>
        <time>2012-10-27T09:40:18Z</time>
      </trkpt>
      <trkpt lat="42.439319000" lon="-2.530525000">
        <ele>503.90</ele>
        <time>2012-10-27T09:40:32Z</time>
      </trkpt>
      <trkpt lat="42.439245000" lon="-2.530857000">
        <ele>503.60</ele>
        <time>2012-10-27T09:40:35Z</time>
      </trkpt>
      <trkpt lat="42.439171000" lon="-2.531246000">
        <ele>505.30</ele>
        <time>2012-10-27T09:40:46Z</time>
      </trkpt>
      <trkpt lat="42.438988000" lon="-2.531805000">
        <ele>505.10</ele>
        <time>2012-10-27T09:41:00Z</time>
      </trkpt>
      <trkpt lat="42.438856000" lon="-2.532538000">
        <ele>503.00</ele>
        <time>2012-10-27T09:41:15Z</time>
      </trkpt>
      <trkpt lat="42.438809000" lon="-2.533343000">
        <ele>501.10</ele>
        <time>2012-10-27T09:41:31Z</time>
      </trkpt>
      <trkpt lat="42.438670000" lon="-2.534082000">
        <ele>501.60</ele>
        <time>2012-10-27T09:41:42Z</time>
      </trkpt>
      <trkpt lat="42.438634000" lon="-2.534236000">
        <ele>502.90</ele>
        <time>2012-10-27T09:41:45Z</time>
      </trkpt>
      <trkpt lat="42.438548000" lon="-2.535210000">
        <ele>500.00</ele>
        <time>2012-10-27T09:41:59Z</time>
      </trkpt>
      <trkpt lat="42.438538000" lon="-2.535348000">
        <ele>499.60</ele>
        <time>2012-10-27T09:42:01Z</time>
      </trkpt>
      <trkpt lat="42.438492000" lon="-2.535557000">
        <ele>499.60</ele>
        <time>2012-10-27T09:42:04Z</time>
      </trkpt>
      <trkpt lat="42.438257000" lon="-2.536143000">
        <ele>499.00</ele>
        <time>2012-10-27T09:42:13Z</time>
      </trkpt>
      <trkpt lat="42.438085000" lon="-2.536668000">
        <ele>498.30</ele>
        <time>2012-10-27T09:42:22Z</time>
      </trkpt>
      <trkpt lat="42.438022000" lon="-2.536936000">
        <ele>497.90</ele>
        <time>2012-10-27T09:42:25Z</time>
      </trkpt>
      <trkpt lat="42.437947000" lon="-2.537383000">
        <ele>497.90</ele>
        <time>2012-10-27T09:42:36Z</time>
      </trkpt>
      <trkpt lat="42.437719000" lon="-2.538088000">
        <ele>498.70</ele>
        <time>2012-10-27T09:42:48Z</time>
      </trkpt>
      <trkpt lat="42.437681000" lon="-2.538204000">
        <ele>498.60</ele>
        <time>2012-10-27T09:42:49Z</time>
      </trkpt>
      <trkpt lat="42.437408000" lon="-2.538543000">
        <ele>499.00</ele>
        <time>2012-10-27T09:43:00Z</time>
      </trkpt>
      <trkpt lat="42.436970000" lon="-2.539130000">
        <ele>500.30</ele>
        <time>2012-10-27T09:43:16Z</time>
      </trkpt>
      <trkpt lat="42.436630000" lon="-2.539376000">
        <ele>498.70</ele>
        <time>2012-10-27T09:43:24Z</time>
      </trkpt>
      <trkpt lat="42.435982000" lon="-2.540080000">
        <ele>491.90</ele>
        <time>2012-10-27T09:43:33Z</time>
      </trkpt>
      <trkpt lat="42.435074000" lon="-2.541448000">
        <ele>485.90</ele>
        <time>2012-10-27T09:43:47Z</time>
      </trkpt>
      <trkpt lat="42.434392000" lon="-2.542730000">
        <ele>479.50</ele>
        <time>2012-10-27T09:43:59Z</time>
      </trkpt>
      <trkpt lat="42.433641000" lon="-2.543679000">
        <ele>478.50</ele>
        <time>2012-10-27T09:44:10Z</time>
      </trkpt>
      <trkpt lat="42.433401000" lon="-2.544158000">
        <ele>480.60</ele>
        <time>2012-10-27T09:44:17Z</time>
      </trkpt>
      <trkpt lat="42.433377000" lon="-2.544369000">
        <ele>480.90</ele>
        <time>2012-10-27T09:44:20Z</time>
      </trkpt>
      <trkpt lat="42.433358000" lon="-2.545062000">
        <ele>482.90</ele>
        <time>2012-10-27T09:44:36Z</time>
      </trkpt>
      <trkpt lat="42.433129000" lon="-2.545212000">
        <ele>484.10</ele>
        <time>2012-10-27T09:44:48Z</time>
      </trkpt>
      <trkpt lat="42.432945000" lon="-2.545351000">
        <ele>483.20</ele>
        <time>2012-10-27T09:45:04Z</time>
      </trkpt>
      <trkpt lat="42.432358000" lon="-2.545759000">
        <ele>479.20</ele>
        <time>2012-10-27T09:45:16Z</time>
      </trkpt>
      <trkpt lat="42.432215000" lon="-2.545869000">
        <ele>477.90</ele>
        <time>2012-10-27T09:45:19Z</time>
      </trkpt>
      <trkpt lat="42.431951000" lon="-2.546332000">
        <ele>475.60</ele>
        <time>2012-10-27T09:45:23Z</time>
      </trkpt>
      <trkpt lat="42.431262000" lon="-2.548031000">
        <ele>473.70</ele>
        <time>2012-10-27T09:45:42Z</time>
      </trkpt>
      <trkpt lat="42.430941000" lon="-2.548880000">
        <ele>473.10</ele>
        <time>2012-10-27T09:45:58Z</time>
      </trkpt>
      <trkpt lat="42.430735000" lon="-2.549440000">
        <ele>472.90</ele>
        <time>2012-10-27T09:46:10Z</time>
      </trkpt>
      <trkpt lat="42.430449000" lon="-2.550604000">
        <ele>473.20</ele>
        <time>2012-10-27T09:46:29Z</time>
      </trkpt>
      <trkpt lat="42.430370000" lon="-2.551030000">
        <ele>473.70</ele>
        <time>2012-10-27T09:46:36Z</time>
      </trkpt>
      <trkpt lat="42.429986000" lon="-2.551963000">
        <ele>473.70</ele>
        <time>2012-10-27T09:46:55Z</time>
      </trkpt>
      <trkpt lat="42.429919000" lon="-2.552010000">
        <ele>473.60</ele>
        <time>2012-10-27T09:46:57Z</time>
      </trkpt>
      <trkpt lat="42.429770000" lon="-2.552092000">
        <ele>473.40</ele>
        <time>2012-10-27T09:47:02Z</time>
      </trkpt>
      <trkpt lat="42.429690000" lon="-2.552517000">
        <ele>473.70</ele>
        <time>2012-10-27T09:47:11Z</time>
      </trkpt>
      <trkpt lat="42.429716000" lon="-2.552560000">
        <ele>473.80</ele>
        <time>2012-10-27T09:47:11Z</time>
      </trkpt>
      <trkpt lat="42.429880000" lon="-2.553273000">
        <ele>474.30</ele>
        <time>2012-10-27T09:47:25Z</time>
      </trkpt>
      <trkpt lat="42.429880000" lon="-2.554103000">
        <ele>474.90</ele>
        <time>2012-10-27T09:47:42Z</time>
      </trkpt>
      <trkpt lat="42.429748000" lon="-2.555005000">
        <ele>475.50</ele>
        <time>2012-10-27T09:48:01Z</time>
      </trkpt>
      <trkpt lat="42.429638000" lon="-2.555700000">
        <ele>478.30</ele>
        <time>2012-10-27T09:48:19Z</time>
      </trkpt>
      <trkpt lat="42.429579000" lon="-2.556356000">
        <ele>481.90</ele>
        <time>2012-10-27T09:48:38Z</time>
      </trkpt>
      <trkpt lat="42.429563000" lon="-2.556491000">
        <ele>482.60</ele>
        <time>2012-10-27T09:48:41Z</time>
      </trkpt>
      <trkpt lat="42.429575000" lon="-2.556585000">
        <ele>483.10</ele>
        <time>2012-10-27T09:48:45Z</time>
      </trkpt>
      <trkpt lat="42.429548000" lon="-2.556888000">
        <ele>485.00</ele>
        <time>2012-10-27T09:48:55Z</time>
      </trkpt>
      <trkpt lat="42.429305000" lon="-2.557013000">
        <ele>486.20</ele>
        <time>2012-10-27T09:49:09Z</time>
      </trkpt>
      <trkpt lat="42.429140000" lon="-2.557449000">
        <ele>488.40</ele>
        <time>2012-10-27T09:49:25Z</time>
      </trkpt>
      <trkpt lat="42.429044000" lon="-2.558339000">
        <ele>491.40</ele>
        <time>2012-10-27T09:49:49Z</time>
      </trkpt>
      <trkpt lat="42.428978000" lon="-2.559167000">
        <ele>494.10</ele>
        <time>2012-10-27T09:50:10Z</time>
      </trkpt>
      <trkpt lat="42.428899000" lon="-2.559779000">
        <ele>500.40</ele>
        <time>2012-10-27T09:50:26Z</time>
      </trkpt>
      <trkpt lat="42.428858000" lon="-2.560386000">
        <ele>503.90</ele>
        <time>2012-10-27T09:50:42Z</time>
      </trkpt>
      <trkpt lat="42.428851000" lon="-2.560919000">
        <ele>504.00</ele>
        <time>2012-10-27T09:50:54Z</time>
      </trkpt>
      <trkpt lat="42.428890000" lon="-2.561426000">
        <ele>505.80</ele>
        <time>2012-10-27T09:51:08Z</time>
      </trkpt>
      <trkpt lat="42.429044000" lon="-2.561508000">
        <ele>510.10</ele>
        <time>2012-10-27T09:51:15Z</time>
      </trkpt>
      <trkpt lat="42.429089000" lon="-2.561629000">
        <ele>511.70</ele>
        <time>2012-10-27T09:51:23Z</time>
      </trkpt>
      <trkpt lat="42.429088000" lon="-2.561709000">
        <ele>513.90</ele>
        <time>2012-10-27T09:56:35Z</time>
      </trkpt>
      <trkpt lat="42.429122000" lon="-2.562379000">
        <ele>508.60</ele>
        <time>2012-10-27T09:56:56Z</time>
      </trkpt>
      <trkpt lat="42.429269000" lon="-2.562819000">
        <ele>507.10</ele>
        <time>2012-10-27T09:57:08Z</time>
      </trkpt>
      <trkpt lat="42.429447000" lon="-2.563338000">
        <ele>506.00</ele>
        <time>2012-10-27T09:57:22Z</time>
      </trkpt>
      <trkpt lat="42.429716000" lon="-2.563772000">
        <ele>505.40</ele>
        <time>2012-10-27T09:57:34Z</time>
      </trkpt>
      <trkpt lat="42.430021000" lon="-2.564246000">
        <ele>506.50</ele>
        <time>2012-10-27T09:57:47Z</time>
      </trkpt>
      <trkpt lat="42.430043000" lon="-2.564288000">
        <ele>507.00</ele>
        <time>2012-10-27T09:57:48Z</time>
      </trkpt>
      <trkpt lat="42.430414000" lon="-2.564591000">
        <ele>510.60</ele>
        <time>2012-10-27T09:57:59Z</time>
      </trkpt>
      <trkpt lat="42.430618000" lon="-2.564746000">
        <ele>513.00</ele>
        <time>2012-10-27T09:58:06Z</time>
      </trkpt>
      <trkpt lat="42.430559000" lon="-2.565412000">
        <ele>514.30</ele>
        <time>2012-10-27T09:58:18Z</time>
      </trkpt>
      <trkpt lat="42.430463000" lon="-2.566247000">
        <ele>507.80</ele>
        <time>2012-10-27T09:58:35Z</time>
      </trkpt>
      <trkpt lat="42.430309000" lon="-2.567254000">
        <ele>502.50</ele>
        <time>2012-10-27T09:58:56Z</time>
      </trkpt>
      <trkpt lat="42.430219000" lon="-2.567800000">
        <ele>503.20</ele>
        <time>2012-10-27T09:59:07Z</time>
      </trkpt>
      <trkpt lat="42.429997000" lon="-2.568493000">
        <ele>505.80</ele>
        <time>2012-10-27T09:59:24Z</time>
      </trkpt>
      <trkpt lat="42.429422000" lon="-2.569680000">
        <ele>507.00</ele>
        <time>2012-10-27T09:59:50Z</time>
      </trkpt>
      <trkpt lat="42.428884000" lon="-2.570837000">
        <ele>504.90</ele>
        <time>2012-10-27T10:00:16Z</time>
      </trkpt>
      <trkpt lat="42.428382000" lon="-2.571904000">
        <ele>504.50</ele>
        <time>2012-10-27T10:00:41Z</time>
      </trkpt>
      <trkpt lat="42.427792000" lon="-2.573125000">
        <ele>507.00</ele>
        <time>2012-10-27T10:01:07Z</time>
      </trkpt>
      <trkpt lat="42.427391000" lon="-2.573788000">
        <ele>508.40</ele>
        <time>2012-10-27T10:01:26Z</time>
      </trkpt>
      <trkpt lat="42.427127000" lon="-2.574247000">
        <ele>510.10</ele>
        <time>2012-10-27T10:01:38Z</time>
      </trkpt>
      <trkpt lat="42.426790000" lon="-2.574960000">
        <ele>512.00</ele>
        <time>2012-10-27T10:01:59Z</time>
      </trkpt>
      <trkpt lat="42.426494000" lon="-2.575614000">
        <ele>513.20</ele>
        <time>2012-10-27T10:02:18Z</time>
      </trkpt>
      <trkpt lat="42.426092000" lon="-2.576560000">
        <ele>515.70</ele>
        <time>2012-10-27T10:02:41Z</time>
      </trkpt>
      <trkpt lat="42.425714000" lon="-2.577178000">
        <ele>516.80</ele>
        <time>2012-10-27T10:03:00Z</time>
      </trkpt>
      <trkpt lat="42.425278000" lon="-2.577674000">
        <ele>518.90</ele>
        <time>2012-10-27T10:03:21Z</time>
      </trkpt>
      <trkpt lat="42.424641000" lon="-2.578329000">
        <ele>522.10</ele>
        <time>2012-10-27T10:03:49Z</time>
      </trkpt>
      <trkpt lat="42.424112000" lon="-2.578667000">
        <ele>523.40</ele>
        <time>2012-10-27T10:04:10Z</time>
      </trkpt>
      <trkpt lat="42.423597000" lon="-2.579002000">
        <ele>525.10</ele>
        <time>2012-10-27T10:04:31Z</time>
      </trkpt>
      <trkpt lat="42.422952000" lon="-2.579538000">
        <ele>528.00</ele>
        <time>2012-10-27T10:05:00Z</time>
      </trkpt>
      <trkpt lat="42.422438000" lon="-2.579830000">
        <ele>529.70</ele>
        <time>2012-10-27T10:05:19Z</time>
      </trkpt>
      <trkpt lat="42.421917000" lon="-2.580338000">
        <ele>532.40</ele>
        <time>2012-10-27T10:05:42Z</time>
      </trkpt>
      <trkpt lat="42.421522000" lon="-2.580843000">
        <ele>534.00</ele>
        <time>2012-10-27T10:06:01Z</time>
      </trkpt>
      <trkpt lat="42.421230000" lon="-2.581341000">
        <ele>536.10</ele>
        <time>2012-10-27T10:06:19Z</time>
      </trkpt>
      <trkpt lat="42.420745000" lon="-2.581955000">
        <ele>537.40</ele>
        <time>2012-10-27T10:06:41Z</time>
      </trkpt>
      <trkpt lat="42.420186000" lon="-2.582461000">
        <ele>541.00</ele>
        <time>2012-10-27T10:07:04Z</time>
      </trkpt>
      <trkpt lat="42.419650000" lon="-2.582948000">
        <ele>543.10</ele>
        <time>2012-10-27T10:07:25Z</time>
      </trkpt>
      <trkpt lat="42.419443000" lon="-2.583530000">
        <ele>544.20</ele>
        <time>2012-10-27T10:07:41Z</time>
      </trkpt>
      <trkpt lat="42.419099000" lon="-2.584021000">
        <ele>546.30</ele>
        <time>2012-10-27T10:07:56Z</time>
      </trkpt>
      <trkpt lat="42.418636000" lon="-2.584682000">
        <ele>548.90</ele>
        <time>2012-10-27T10:08:19Z</time>
      </trkpt>
      <trkpt lat="42.418131000" lon="-2.585153000">
        <ele>551.40</ele>
        <time>2012-10-27T10:08:38Z</time>
      </trkpt>
      <trkpt lat="42.417563000" lon="-2.585726000">
        <ele>554.20</ele>
        <time>2012-10-27T10:09:01Z</time>
      </trkpt>
      <trkpt lat="42.417161000" lon="-2.586093000">
        <ele>555.60</ele>
        <time>2012-10-27T10:09:18Z</time>
      </trkpt>
      <trkpt lat="42.416695000" lon="-2.586601000">
        <ele>558.10</ele>
        <time>2012-10-27T10:09:41Z</time>
      </trkpt>
      <trkpt lat="42.416192000" lon="-2.587156000">
        <ele>560.80</ele>
        <time>2012-10-27T10:10:03Z</time>
      </trkpt>
      <trkpt lat="42.415590000" lon="-2.587450000">
        <ele>564.60</ele>
        <time>2012-10-27T10:10:26Z</time>
      </trkpt>
      <trkpt lat="42.415123000" lon="-2.587676000">
        <ele>566.70</ele>
        <time>2012-10-27T10:10:43Z</time>
      </trkpt>
      <trkpt lat="42.415126000" lon="-2.587990000">
        <ele>567.20</ele>
        <time>2012-10-27T10:10:52Z</time>
      </trkpt>
      <trkpt lat="42.415194000" lon="-2.588623000">
        <ele>568.40</ele>
        <time>2012-10-27T10:11:08Z</time>
      </trkpt>
      <trkpt lat="42.415163000" lon="-2.589293000">
        <ele>569.40</ele>
        <time>2012-10-27T10:11:25Z</time>
      </trkpt>
      <trkpt lat="42.415101000" lon="-2.589823000">
        <ele>571.00</ele>
        <time>2012-10-27T10:11:39Z</time>
      </trkpt>
      <trkpt lat="42.415066000" lon="-2.590584000">
        <ele>572.40</ele>
        <time>2012-10-27T10:12:00Z</time>
      </trkpt>
      <trkpt lat="42.415007000" lon="-2.591206000">
        <ele>572.90</ele>
        <time>2012-10-27T10:12:21Z</time>
      </trkpt>
      <trkpt lat="42.414939000" lon="-2.591974000">
        <ele>575.30</ele>
        <time>2012-10-27T10:12:44Z</time>
      </trkpt>
      <trkpt lat="42.414812000" lon="-2.592501000">
        <ele>578.50</ele>
        <time>2012-10-27T10:13:01Z</time>
      </trkpt>
      <trkpt lat="42.414707000" lon="-2.593105000">
        <ele>577.00</ele>
        <time>2012-10-27T10:13:15Z</time>
      </trkpt>
      <trkpt lat="42.414677000" lon="-2.593897000">
        <ele>575.50</ele>
        <time>2012-10-27T10:13:31Z</time>
      </trkpt>
      <trkpt lat="42.414858000" lon="-2.594534000">
        <ele>574.00</ele>
        <time>2012-10-27T10:13:43Z</time>
      </trkpt>
      <trkpt lat="42.414908000" lon="-2.594637000">
        <ele>573.40</ele>
        <time>2012-10-27T10:13:46Z</time>
      </trkpt>
      <trkpt lat="42.415471000" lon="-2.595485000">
        <ele>564.60</ele>
        <time>2012-10-27T10:14:02Z</time>
      </trkpt>
      <trkpt lat="42.415695000" lon="-2.595753000">
        <ele>562.00</ele>
        <time>2012-10-27T10:14:06Z</time>
      </trkpt>
      <trkpt lat="42.416022000" lon="-2.596405000">
        <ele>564.10</ele>
        <time>2012-10-27T10:14:16Z</time>
      </trkpt>
      <trkpt lat="42.416190000" lon="-2.596855000">
        <ele>567.60</ele>
        <time>2012-10-27T10:14:30Z</time>
      </trkpt>
      <trkpt lat="42.416410000" lon="-2.597580000">
        <ele>567.20</ele>
        <time>2012-10-27T10:14:49Z</time>
      </trkpt>
      <trkpt lat="42.416513000" lon="-2.597972000">
        <ele>562.10</ele>
        <time>2012-10-27T10:14:54Z</time>
      </trkpt>
      <trkpt lat="42.416701000" lon="-2.598085000">
        <ele>558.20</ele>
        <time>2012-10-27T10:15:00Z</time>
      </trkpt>
      <trkpt lat="42.416868000" lon="-2.598023000">
        <ele>557.30</ele>
        <time>2012-10-27T10:15:03Z</time>
      </trkpt>
      <trkpt lat="42.417072000" lon="-2.598099000">
        <ele>557.10</ele>
        <time>2012-10-27T10:15:06Z</time>
      </trkpt>
      <trkpt lat="42.417131000" lon="-2.598359000">
        <ele>557.70</ele>
        <time>2012-10-27T10:15:12Z</time>
      </trkpt>
      <trkpt lat="42.416784000" lon="-2.599106000">
        <ele>559.80</ele>
        <time>2012-10-27T10:15:33Z</time>
      </trkpt>
      <trkpt lat="42.416385000" lon="-2.599949000">
        <ele>560.80</ele>
        <time>2012-10-27T10:15:57Z</time>
      </trkpt>
      <trkpt lat="42.415989000" lon="-2.600829000">
        <ele>563.40</ele>
        <time>2012-10-27T10:16:21Z</time>
      </trkpt>
      <trkpt lat="42.415701000" lon="-2.601628000">
        <ele>566.40</ele>
        <time>2012-10-27T10:16:41Z</time>
      </trkpt>
      <trkpt lat="42.415338000" lon="-2.602591000">
        <ele>567.90</ele>
        <time>2012-10-27T10:17:05Z</time>
      </trkpt>
      <trkpt lat="42.415034000" lon="-2.603425000">
        <ele>569.10</ele>
        <time>2012-10-27T10:17:26Z</time>
      </trkpt>
      <trkpt lat="42.414752000" lon="-2.604284000">
        <ele>572.00</ele>
        <time>2012-10-27T10:17:48Z</time>
      </trkpt>
      <trkpt lat="42.414383000" lon="-2.605252000">
        <ele>574.30</ele>
        <time>2012-10-27T10:18:16Z</time>
      </trkpt>
      <trkpt lat="42.414093000" lon="-2.606075000">
        <ele>576.10</ele>
        <time>2012-10-27T10:18:37Z</time>
      </trkpt>
      <trkpt lat="42.413672000" lon="-2.607196000">
        <ele>578.50</ele>
        <time>2012-10-27T10:19:07Z</time>
      </trkpt>
      <trkpt lat="42.413250000" lon="-2.608415000">
        <ele>580.20</ele>
        <time>2012-10-27T10:19:36Z</time>
      </trkpt>
      <trkpt lat="42.412940000" lon="-2.609432000">
        <ele>582.90</ele>
        <time>2012-10-27T10:20:01Z</time>
      </trkpt>
      <trkpt lat="42.412697000" lon="-2.610408000">
        <ele>587.30</ele>
        <time>2012-10-27T10:20:27Z</time>
      </trkpt>
      <trkpt lat="42.412551000" lon="-2.611079000">
        <ele>589.40</ele>
        <time>2012-10-27T10:20:43Z</time>
      </trkpt>
      <trkpt lat="42.412364000" lon="-2.612255000">
        <ele>592.70</ele>
        <time>2012-10-27T10:21:12Z</time>
      </trkpt>
      <trkpt lat="42.412259000" lon="-2.613317000">
        <ele>594.80</ele>
        <time>2012-10-27T10:21:37Z</time>
      </trkpt>
      <trkpt lat="42.412208000" lon="-2.614109000">
        <ele>595.90</ele>
        <time>2012-10-27T10:21:59Z</time>
      </trkpt>
      <trkpt lat="42.412105000" lon="-2.614156000">
        <ele>596.30</ele>
        <time>2012-10-27T10:22:03Z</time>
      </trkpt>
      <trkpt lat="42.411561000" lon="-2.614251000">
        <ele>596.00</ele>
        <time>2012-10-27T10:22:24Z</time>
      </trkpt>
      <trkpt lat="42.411399000" lon="-2.614671000">
        <ele>597.00</ele>
        <time>2012-10-27T10:22:38Z</time>
      </trkpt>
      <trkpt lat="42.411105000" lon="-2.615527000">
        <ele>600.30</ele>
        <time>2012-10-27T10:23:05Z</time>
      </trkpt>
      <trkpt lat="42.410816000" lon="-2.616186000">
        <ele>601.30</ele>
        <time>2012-10-27T10:23:25Z</time>
      </trkpt>
      <trkpt lat="42.410407000" lon="-2.616886000">
        <ele>600.30</ele>
        <time>2012-10-27T10:23:46Z</time>
      </trkpt>
      <trkpt lat="42.410091000" lon="-2.617585000">
        <ele>600.80</ele>
        <time>2012-10-27T10:24:05Z</time>
      </trkpt>
      <trkpt lat="42.409926000" lon="-2.618533000">
        <ele>604.60</ele>
        <time>2012-10-27T10:24:27Z</time>
      </trkpt>
      <trkpt lat="42.409639000" lon="-2.618923000">
        <ele>605.90</ele>
        <time>2012-10-27T10:24:41Z</time>
      </trkpt>
      <trkpt lat="42.409268000" lon="-2.619521000">
        <ele>607.90</ele>
        <time>2012-10-27T10:25:02Z</time>
      </trkpt>
      <trkpt lat="42.408872000" lon="-2.620271000">
        <ele>610.10</ele>
        <time>2012-10-27T10:25:23Z</time>
      </trkpt>
      <trkpt lat="42.408680000" lon="-2.620891000">
        <ele>612.10</ele>
        <time>2012-10-27T10:25:39Z</time>
      </trkpt>
      <trkpt lat="42.408388000" lon="-2.621588000">
        <ele>614.00</ele>
        <time>2012-10-27T10:26:00Z</time>
      </trkpt>
      <trkpt lat="42.408048000" lon="-2.622131000">
        <ele>614.30</ele>
        <time>2012-10-27T10:26:17Z</time>
      </trkpt>
      <trkpt lat="42.407678000" lon="-2.622602000">
        <ele>614.50</ele>
        <time>2012-10-27T10:26:35Z</time>
      </trkpt>
      <trkpt lat="42.407156000" lon="-2.622960000">
        <ele>617.10</ele>
        <time>2012-10-27T10:26:54Z</time>
      </trkpt>
      <trkpt lat="42.406608000" lon="-2.623360000">
        <ele>619.90</ele>
        <time>2012-10-27T10:27:16Z</time>
      </trkpt>
      <trkpt lat="42.406197000" lon="-2.623782000">
        <ele>622.10</ele>
        <time>2012-10-27T10:27:32Z</time>
      </trkpt>
      <trkpt lat="42.405692000" lon="-2.624422000">
        <ele>624.90</ele>
        <time>2012-10-27T10:27:55Z</time>
      </trkpt>
      <trkpt lat="42.405458000" lon="-2.624933000">
        <ele>627.40</ele>
        <time>2012-10-27T10:28:10Z</time>
      </trkpt>
      <trkpt lat="42.405598000" lon="-2.625277000">
        <ele>632.40</ele>
        <time>2012-10-27T10:28:24Z</time>
      </trkpt>
      <trkpt lat="42.405909000" lon="-2.625946000">
        <ele>634.30</ele>
        <time>2012-10-27T10:28:42Z</time>
      </trkpt>
      <trkpt lat="42.406093000" lon="-2.626453000">
        <ele>635.10</ele>
        <time>2012-10-27T10:28:57Z</time>
      </trkpt>
      <trkpt lat="42.406527000" lon="-2.627000000">
        <ele>631.30</ele>
        <time>2012-10-27T10:29:11Z</time>
      </trkpt>
      <trkpt lat="42.406572000" lon="-2.627039000">
        <ele>631.10</ele>
        <time>2012-10-27T10:29:13Z</time>
      </trkpt>
      <trkpt lat="42.407249000" lon="-2.627461000">
        <ele>624.50</ele>
        <time>2012-10-27T10:29:25Z</time>
      </trkpt>
      <trkpt lat="42.408157000" lon="-2.628355000">
        <ele>619.90</ele>
        <time>2012-10-27T10:29:41Z</time>
      </trkpt>
      <trkpt lat="42.408236000" lon="-2.628681000">
        <ele>619.00</ele>
        <time>2012-10-27T10:29:46Z</time>
      </trkpt>
      <trkpt lat="42.408227000" lon="-2.629527000">
        <ele>619.30</ele>
        <time>2012-10-27T10:30:05Z</time>
      </trkpt>
      <trkpt lat="42.408378000" lon="-2.630438000">
        <ele>620.30</ele>
        <time>2012-10-27T10:30:28Z</time>
      </trkpt>
      <trkpt lat="42.408582000" lon="-2.631404000">
        <ele>623.40</ele>
        <time>2012-10-27T10:30:56Z</time>
      </trkpt>
      <trkpt lat="42.408961000" lon="-2.631761000">
        <ele>623.00</ele>
        <time>2012-10-27T10:31:13Z</time>
      </trkpt>
      <trkpt lat="42.409436000" lon="-2.632342000">
        <ele>621.30</ele>
        <time>2012-10-27T10:31:27Z</time>
      </trkpt>
      <trkpt lat="42.409833000" lon="-2.632630000">
        <ele>622.70</ele>
        <time>2012-10-27T10:31:39Z</time>
      </trkpt>
      <trkpt lat="42.409953000" lon="-2.632790000">
        <ele>621.00</ele>
        <time>2012-10-27T10:31:43Z</time>
      </trkpt>
      <trkpt lat="42.410338000" lon="-2.633477000">
        <ele>621.20</ele>
        <time>2012-10-27T10:32:00Z</time>
      </trkpt>
      <trkpt lat="42.410759000" lon="-2.633821000">
        <ele>624.50</ele>
        <time>2012-10-27T10:32:18Z</time>
      </trkpt>
      <trkpt lat="42.411134000" lon="-2.634169000">
        <ele>626.20</ele>
        <time>2012-10-27T10:32:35Z</time>
      </trkpt>
      <trkpt lat="42.411313000" lon="-2.634762000">
        <ele>626.20</ele>
        <time>2012-10-27T10:32:49Z</time>
      </trkpt>
      <trkpt lat="42.411408000" lon="-2.635424000">
        <ele>625.50</ele>
        <time>2012-10-27T10:33:05Z</time>
      </trkpt>
      <trkpt lat="42.411476000" lon="-2.636188000">
        <ele>626.00</ele>
        <time>2012-10-27T10:33:24Z</time>
      </trkpt>
      <trkpt lat="42.411521000" lon="-2.636878000">
        <ele>627.30</ele>
        <time>2012-10-27T10:33:43Z</time>
      </trkpt>
      <trkpt lat="42.411436000" lon="-2.637425000">
        <ele>629.20</ele>
        <time>2012-10-27T10:34:00Z</time>
      </trkpt>
      <trkpt lat="42.411485000" lon="-2.637991000">
        <ele>633.20</ele>
        <time>2012-10-27T10:34:18Z</time>
      </trkpt>
      <trkpt lat="42.411439000" lon="-2.638772000">
        <ele>635.50</ele>
        <time>2012-10-27T10:34:42Z</time>
      </trkpt>
      <trkpt lat="42.411371000" lon="-2.639405000">
        <ele>639.00</ele>
        <time>2012-10-27T10:35:03Z</time>
      </trkpt>
      <trkpt lat="42.411320000" lon="-2.640203000">
        <ele>641.40</ele>
        <time>2012-10-27T10:35:29Z</time>
      </trkpt>
      <trkpt lat="42.411374000" lon="-2.641003000">
        <ele>645.10</ele>
        <time>2012-10-27T10:35:54Z</time>
      </trkpt>
      <trkpt lat="42.411355000" lon="-2.641589000">
        <ele>647.60</ele>
        <time>2012-10-27T10:36:15Z</time>
      </trkpt>
      <trkpt lat="42.411426000" lon="-2.641957000">
        <ele>648.90</ele>
        <time>2012-10-27T10:36:30Z</time>
      </trkpt>
      <trkpt lat="42.411530000" lon="-2.642139000">
        <ele>651.60</ele>
        <time>2012-10-27T10:36:41Z</time>
      </trkpt>
      <trkpt lat="42.411675000" lon="-2.642352000">
        <ele>656.80</ele>
        <time>2012-10-27T10:36:53Z</time>
      </trkpt>
      <trkpt lat="42.411805000" lon="-2.642563000">
        <ele>660.70</ele>
        <time>2012-10-27T10:37:07Z</time>
      </trkpt>
      <trkpt lat="42.411885000" lon="-2.642612000">
        <ele>662.00</ele>
        <time>2012-10-27T10:37:19Z</time>
      </trkpt>
      <trkpt lat="42.411942000" lon="-2.642651000">
        <ele>664.70</ele>
        <time>2012-10-27T10:37:31Z</time>
      </trkpt>
      <trkpt lat="42.412004000" lon="-2.642737000">
        <ele>666.70</ele>
        <time>2012-10-27T10:37:45Z</time>
      </trkpt>
      <trkpt lat="42.412009000" lon="-2.642759000">
        <ele>667.00</ele>
        <time>2012-10-27T10:37:47Z</time>
      </trkpt>
      <trkpt lat="42.412032000" lon="-2.642849000">
        <ele>667.20</ele>
        <time>2012-10-27T10:37:56Z</time>
      </trkpt>
      <trkpt lat="42.412034000" lon="-2.642921000">
        <ele>667.80</ele>
        <time>2012-10-27T10:37:59Z</time>
      </trkpt>
      <trkpt lat="42.412056000" lon="-2.642987000">
        <ele>668.70</ele>
        <time>2012-10-27T10:38:03Z</time>
      </trkpt>
      <trkpt lat="42.412302000" lon="-2.643400000">
        <ele>668.60</ele>
        <time>2012-10-27T10:38:18Z</time>
      </trkpt>
      <trkpt lat="42.412467000" lon="-2.643774000">
        <ele>668.50</ele>
        <time>2012-10-27T10:38:29Z</time>
      </trkpt>
      <trkpt lat="42.412474000" lon="-2.643808000">
        <ele>668.50</ele>
        <time>2012-10-27T10:38:30Z</time>
      </trkpt>
      <trkpt lat="42.412414000" lon="-2.644243000">
        <ele>666.10</ele>
        <time>2012-10-27T10:38:41Z</time>
      </trkpt>
      <trkpt lat="42.412414000" lon="-2.644787000">
        <ele>663.50</ele>
        <time>2012-10-27T10:38:51Z</time>
      </trkpt>
      <trkpt lat="42.412474000" lon="-2.645407000">
        <ele>661.00</ele>
        <time>2012-10-27T10:39:07Z</time>
      </trkpt>
      <trkpt lat="42.412492000" lon="-2.645743000">
        <ele>659.10</ele>
        <time>2012-10-27T10:39:19Z</time>
      </trkpt>
      <trkpt lat="42.412484000" lon="-2.645727000">
        <ele>659.30</ele>
        <time>2012-10-27T10:39:40Z</time>
      </trkpt>
      <trkpt lat="42.412480000" lon="-2.645734000">
        <ele>658.50</ele>
        <time>2012-10-27T10:43:53Z</time>
      </trkpt>
      <trkpt lat="42.412480000" lon="-2.645736000">
        <ele>658.50</ele>
        <time>2012-10-27T10:44:03Z</time>
      </trkpt>
      <trkpt lat="42.412481000" lon="-2.645839000">
        <ele>657.50</ele>
        <time>2012-10-27T10:44:08Z</time>
      </trkpt>
      <trkpt lat="42.412480000" lon="-2.646457000">
        <ele>652.90</ele>
        <time>2012-10-27T10:44:19Z</time>
      </trkpt>
      <trkpt lat="42.412483000" lon="-2.646654000">
        <ele>651.60</ele>
        <time>2012-10-27T10:44:22Z</time>
      </trkpt>
      <trkpt lat="42.412552000" lon="-2.647148000">
        <ele>649.50</ele>
        <time>2012-10-27T10:44:26Z</time>
      </trkpt>
      <trkpt lat="42.412579000" lon="-2.647906000">
        <ele>647.70</ele>
        <time>2012-10-27T10:44:36Z</time>
      </trkpt>
      <trkpt lat="42.412598000" lon="-2.648095000">
        <ele>646.90</ele>
        <time>2012-10-27T10:44:40Z</time>
      </trkpt>
      <trkpt lat="42.412638000" lon="-2.648627000">
        <ele>642.70</ele>
        <time>2012-10-27T10:44:52Z</time>
      </trkpt>
      <trkpt lat="42.412494000" lon="-2.648756000">
        <ele>640.90</ele>
        <time>2012-10-27T10:44:57Z</time>
      </trkpt>
      <trkpt lat="42.412168000" lon="-2.649341000">
        <ele>633.10</ele>
        <time>2012-10-27T10:45:06Z</time>
      </trkpt>
      <trkpt lat="42.411858000" lon="-2.649645000">
        <ele>627.80</ele>
        <time>2012-10-27T10:45:11Z</time>
      </trkpt>
      <trkpt lat="42.411378000" lon="-2.650044000">
        <ele>623.40</ele>
        <time>2012-10-27T10:45:20Z</time>
      </trkpt>
      <trkpt lat="42.411134000" lon="-2.650609000">
        <ele>620.80</ele>
        <time>2012-10-27T10:45:27Z</time>
      </trkpt>
      <trkpt lat="42.411159000" lon="-2.650667000">
        <ele>620.30</ele>
        <time>2012-10-27T10:45:29Z</time>
      </trkpt>
      <trkpt lat="42.411200000" lon="-2.650742000">
        <ele>619.90</ele>
        <time>2012-10-27T10:45:30Z</time>
      </trkpt>
      <trkpt lat="42.411152000" lon="-2.651123000">
        <ele>617.40</ele>
        <time>2012-10-27T10:45:37Z</time>
      </trkpt>
      <trkpt lat="42.411082000" lon="-2.651233000">
        <ele>617.00</ele>
        <time>2012-10-27T10:45:39Z</time>
      </trkpt>
      <trkpt lat="42.410944000" lon="-2.651825000">
        <ele>617.60</ele>
        <time>2012-10-27T10:45:48Z</time>
      </trkpt>
      <trkpt lat="42.410928000" lon="-2.651998000">
        <ele>617.60</ele>
        <time>2012-10-27T10:45:51Z</time>
      </trkpt>
      <trkpt lat="42.410977000" lon="-2.652758000">
        <ele>619.20</ele>
        <time>2012-10-27T10:46:07Z</time>
      </trkpt>
      <trkpt lat="42.410814000" lon="-2.653564000">
        <ele>615.40</ele>
        <time>2012-10-27T10:46:19Z</time>
      </trkpt>
      <trkpt lat="42.410741000" lon="-2.653780000">
        <ele>614.00</ele>
        <time>2012-10-27T10:46:23Z</time>
      </trkpt>
      <trkpt lat="42.410696000" lon="-2.654667000">
        <ele>612.80</ele>
        <time>2012-10-27T10:46:35Z</time>
      </trkpt>
      <trkpt lat="42.410743000" lon="-2.655425000">
        <ele>609.30</ele>
        <time>2012-10-27T10:46:45Z</time>
      </trkpt>
      <trkpt lat="42.410844000" lon="-2.656208000">
        <ele>610.30</ele>
        <time>2012-10-27T10:46:56Z</time>
      </trkpt>
      <trkpt lat="42.410914000" lon="-2.656791000">
        <ele>611.20</ele>
        <time>2012-10-27T10:47:06Z</time>
      </trkpt>
      <trkpt lat="42.410956000" lon="-2.657304000">
        <ele>610.30</ele>
        <time>2012-10-27T10:47:15Z</time>
      </trkpt>
      <trkpt lat="42.411153000" lon="-2.658518000">
        <ele>609.80</ele>
        <time>2012-10-27T10:47:34Z</time>
      </trkpt>
      <trkpt lat="42.411223000" lon="-2.658982000">
        <ele>609.80</ele>
        <time>2012-10-27T10:47:41Z</time>
      </trkpt>
      <trkpt lat="42.411354000" lon="-2.660004000">
        <ele>608.60</ele>
        <time>2012-10-27T10:47:55Z</time>
      </trkpt>
      <trkpt lat="42.411447000" lon="-2.661185000">
        <ele>606.70</ele>
        <time>2012-10-27T10:48:14Z</time>
      </trkpt>
      <trkpt lat="42.411456000" lon="-2.661938000">
        <ele>607.40</ele>
        <time>2012-10-27T10:48:24Z</time>
      </trkpt>
      <trkpt lat="42.411409000" lon="-2.662612000">
        <ele>608.60</ele>
        <time>2012-10-27T10:48:35Z</time>
      </trkpt>
      <trkpt lat="42.411434000" lon="-2.663278000">
        <ele>609.80</ele>
        <time>2012-10-27T10:48:47Z</time>
      </trkpt>
      <trkpt lat="42.411544000" lon="-2.663686000">
        <ele>608.10</ele>
        <time>2012-10-27T10:48:54Z</time>
      </trkpt>
      <trkpt lat="42.411647000" lon="-2.663896000">
        <ele>606.90</ele>
        <time>2012-10-27T10:48:58Z</time>
      </trkpt>
      <trkpt lat="42.411733000" lon="-2.664232000">
        <ele>605.60</ele>
        <time>2012-10-27T10:49:01Z</time>
      </trkpt>
      <trkpt lat="42.411836000" lon="-2.665459000">
        <ele>600.00</ele>
        <time>2012-10-27T10:49:17Z</time>
      </trkpt>
      <trkpt lat="42.412031000" lon="-2.666501000">
        <ele>596.60</ele>
        <time>2012-10-27T10:49:29Z</time>
      </trkpt>
      <trkpt lat="42.412081000" lon="-2.666773000">
        <ele>595.60</ele>
        <time>2012-10-27T10:49:34Z</time>
      </trkpt>
      <trkpt lat="42.412300000" lon="-2.667966000">
        <ele>592.90</ele>
        <time>2012-10-27T10:49:50Z</time>
      </trkpt>
      <trkpt lat="42.412567000" lon="-2.669031000">
        <ele>591.00</ele>
        <time>2012-10-27T10:50:07Z</time>
      </trkpt>
      <trkpt lat="42.412786000" lon="-2.669784000">
        <ele>590.70</ele>
        <time>2012-10-27T10:50:18Z</time>
      </trkpt>
      <trkpt lat="42.413132000" lon="-2.670904000">
        <ele>588.40</ele>
        <time>2012-10-27T10:50:35Z</time>
      </trkpt>
      <trkpt lat="42.413374000" lon="-2.671924000">
        <ele>584.50</ele>
        <time>2012-10-27T10:50:49Z</time>
      </trkpt>
      <trkpt lat="42.413422000" lon="-2.672635000">
        <ele>581.20</ele>
        <time>2012-10-27T10:50:56Z</time>
      </trkpt>
      <trkpt lat="42.413666000" lon="-2.673714000">
        <ele>574.30</ele>
        <time>2012-10-27T10:51:06Z</time>
      </trkpt>
      <trkpt lat="42.413681000" lon="-2.673819000">
        <ele>574.20</ele>
        <time>2012-10-27T10:51:08Z</time>
      </trkpt>
      <trkpt lat="42.413667000" lon="-2.674280000">
        <ele>573.80</ele>
        <time>2012-10-27T10:51:12Z</time>
      </trkpt>
      <trkpt lat="42.413712000" lon="-2.674638000">
        <ele>574.50</ele>
        <time>2012-10-27T10:51:17Z</time>
      </trkpt>
      <trkpt lat="42.414025000" lon="-2.675581000">
        <ele>578.30</ele>
        <time>2012-10-27T10:51:36Z</time>
      </trkpt>
      <trkpt lat="42.414501000" lon="-2.676442000">
        <ele>581.50</ele>
        <time>2012-10-27T10:51:57Z</time>
      </trkpt>
      <trkpt lat="42.414857000" lon="-2.677255000">
        <ele>581.50</ele>
        <time>2012-10-27T10:52:16Z</time>
      </trkpt>
      <trkpt lat="42.415044000" lon="-2.677968000">
        <ele>582.60</ele>
        <time>2012-10-27T10:52:32Z</time>
      </trkpt>
      <trkpt lat="42.414973000" lon="-2.678586000">
        <ele>582.60</ele>
        <time>2012-10-27T10:52:46Z</time>
      </trkpt>
      <trkpt lat="42.414779000" lon="-2.679576000">
        <ele>579.80</ele>
        <time>2012-10-27T10:53:03Z</time>
      </trkpt>
      <trkpt lat="42.414501000" lon="-2.680630000">
        <ele>576.60</ele>
        <time>2012-10-27T10:53:19Z</time>
      </trkpt>
      <trkpt lat="42.414388000" lon="-2.681855000">
        <ele>574.90</ele>
        <time>2012-10-27T10:53:38Z</time>
      </trkpt>
      <trkpt lat="42.414371000" lon="-2.682109000">
        <ele>574.70</ele>
        <time>2012-10-27T10:53:43Z</time>
      </trkpt>
      <trkpt lat="42.414281000" lon="-2.683341000">
        <ele>572.20</ele>
        <time>2012-10-27T10:54:01Z</time>
      </trkpt>
      <trkpt lat="42.413848000" lon="-2.684712000">
        <ele>568.10</ele>
        <time>2012-10-27T10:54:22Z</time>
      </trkpt>
      <trkpt lat="42.413695000" lon="-2.685225000">
        <ele>567.70</ele>
        <time>2012-10-27T10:54:30Z</time>
      </trkpt>
      <trkpt lat="42.413476000" lon="-2.686324000">
        <ele>564.70</ele>
        <time>2012-10-27T10:54:46Z</time>
      </trkpt>
      <trkpt lat="42.413382000" lon="-2.687212000">
        <ele>564.40</ele>
        <time>2012-10-27T10:55:00Z</time>
      </trkpt>
      <trkpt lat="42.413467000" lon="-2.688666000">
        <ele>562.70</ele>
        <time>2012-10-27T10:55:24Z</time>
      </trkpt>
      <trkpt lat="42.413429000" lon="-2.689884000">
        <ele>561.00</ele>
        <time>2012-10-27T10:55:45Z</time>
      </trkpt>
      <trkpt lat="42.413283000" lon="-2.691229000">
        <ele>559.30</ele>
        <time>2012-10-27T10:56:08Z</time>
      </trkpt>
      <trkpt lat="42.413301000" lon="-2.692274000">
        <ele>557.40</ele>
        <time>2012-10-27T10:56:23Z</time>
      </trkpt>
      <trkpt lat="42.413535000" lon="-2.693418000">
        <ele>552.00</ele>
        <time>2012-10-27T10:56:37Z</time>
      </trkpt>
      <trkpt lat="42.413615000" lon="-2.693892000">
        <ele>549.90</ele>
        <time>2012-10-27T10:56:43Z</time>
      </trkpt>
      <trkpt lat="42.414074000" lon="-2.694720000">
        <ele>546.30</ele>
        <time>2012-10-27T10:56:53Z</time>
      </trkpt>
      <trkpt lat="42.414159000" lon="-2.694843000">
        <ele>545.70</ele>
        <time>2012-10-27T10:56:55Z</time>
      </trkpt>
      <trkpt lat="42.414191000" lon="-2.694973000">
        <ele>545.70</ele>
        <time>2012-10-27T10:57:02Z</time>
      </trkpt>
      <trkpt lat="42.414196000" lon="-2.695264000">
        <ele>544.30</ele>
        <time>2012-10-27T10:57:28Z</time>
      </trkpt>
      <trkpt lat="42.414283000" lon="-2.696000000">
        <ele>541.40</ele>
        <time>2012-10-27T10:57:45Z</time>
      </trkpt>
      <trkpt lat="42.414300000" lon="-2.696121000">
        <ele>541.20</ele>
        <time>2012-10-27T10:57:47Z</time>
      </trkpt>
      <trkpt lat="42.414274000" lon="-2.696346000">
        <ele>540.50</ele>
        <time>2012-10-27T10:57:51Z</time>
      </trkpt>
      <trkpt lat="42.414132000" lon="-2.697134000">
        <ele>538.70</ele>
        <time>2012-10-27T10:58:06Z</time>
      </trkpt>
      <trkpt lat="42.414143000" lon="-2.697249000">
        <ele>538.70</ele>
        <time>2012-10-27T10:58:08Z</time>
      </trkpt>
      <trkpt lat="42.414335000" lon="-2.697805000">
        <ele>537.70</ele>
        <time>2012-10-27T10:58:20Z</time>
      </trkpt>
      <trkpt lat="42.414380000" lon="-2.697984000">
        <ele>537.40</ele>
        <time>2012-10-27T10:58:22Z</time>
      </trkpt>
      <trkpt lat="42.414524000" lon="-2.698236000">
        <ele>537.60</ele>
        <time>2012-10-27T10:58:32Z</time>
      </trkpt>
      <trkpt lat="42.414800000" lon="-2.698514000">
        <ele>538.20</ele>
        <time>2012-10-27T10:58:48Z</time>
      </trkpt>
      <trkpt lat="42.415133000" lon="-2.698883000">
        <ele>535.90</ele>
        <time>2012-10-27T10:59:00Z</time>
      </trkpt>
      <trkpt lat="42.415247000" lon="-2.698965000">
        <ele>535.50</ele>
        <time>2012-10-27T10:59:04Z</time>
      </trkpt>
      <trkpt lat="42.415349000" lon="-2.699153000">
        <ele>534.20</ele>
        <time>2012-10-27T10:59:09Z</time>
      </trkpt>
      <trkpt lat="42.415377000" lon="-2.699349000">
        <ele>534.70</ele>
        <time>2012-10-27T10:59:18Z</time>
      </trkpt>
      <trkpt lat="42.415392000" lon="-2.699399000">
        <ele>534.80</ele>
        <time>2012-10-27T10:59:21Z</time>
      </trkpt>
      <trkpt lat="42.415649000" lon="-2.699503000">
        <ele>534.10</ele>
        <time>2012-10-27T10:59:32Z</time>
      </trkpt>
      <trkpt lat="42.416101000" lon="-2.699693000">
        <ele>534.00</ele>
        <time>2012-10-27T10:59:44Z</time>
      </trkpt>
      <trkpt lat="42.416136000" lon="-2.699720000">
        <ele>533.90</ele>
        <time>2012-10-27T10:59:46Z</time>
      </trkpt>
      <trkpt lat="42.416076000" lon="-2.699984000">
        <ele>534.80</ele>
        <time>2012-10-27T10:59:54Z</time>
      </trkpt>
      <trkpt lat="42.415716000" lon="-2.700375000">
        <ele>533.00</ele>
        <time>2012-10-27T11:00:08Z</time>
      </trkpt>
      <trkpt lat="42.415628000" lon="-2.701362000">
        <ele>532.80</ele>
        <time>2012-10-27T11:00:24Z</time>
      </trkpt>
      <trkpt lat="42.415432000" lon="-2.702417000">
        <ele>530.60</ele>
        <time>2012-10-27T11:00:43Z</time>
      </trkpt>
      <trkpt lat="42.415417000" lon="-2.702647000">
        <ele>530.70</ele>
        <time>2012-10-27T11:00:47Z</time>
      </trkpt>
      <trkpt lat="42.415550000" lon="-2.703469000">
        <ele>531.70</ele>
        <time>2012-10-27T11:01:02Z</time>
      </trkpt>
      <trkpt lat="42.415712000" lon="-2.704606000">
        <ele>532.10</ele>
        <time>2012-10-27T11:01:23Z</time>
      </trkpt>
      <trkpt lat="42.415799000" lon="-2.705812000">
        <ele>532.60</ele>
        <time>2012-10-27T11:01:44Z</time>
      </trkpt>
      <trkpt lat="42.415867000" lon="-2.706590000">
        <ele>532.70</ele>
        <time>2012-10-27T11:01:58Z</time>
      </trkpt>
      <trkpt lat="42.415929000" lon="-2.707696000">
        <ele>533.00</ele>
        <time>2012-10-27T11:02:17Z</time>
      </trkpt>
      <trkpt lat="42.415977000" lon="-2.707959000">
        <ele>532.60</ele>
        <time>2012-10-27T11:02:21Z</time>
      </trkpt>
      <trkpt lat="42.416061000" lon="-2.708769000">
        <ele>531.80</ele>
        <time>2012-10-27T11:02:35Z</time>
      </trkpt>
      <trkpt lat="42.416119000" lon="-2.709219000">
        <ele>531.50</ele>
        <time>2012-10-27T11:02:42Z</time>
      </trkpt>
      <trkpt lat="42.416155000" lon="-2.709564000">
        <ele>531.20</ele>
        <time>2012-10-27T11:02:47Z</time>
      </trkpt>
      <trkpt lat="42.416100000" lon="-2.709834000">
        <ele>530.30</ele>
        <time>2012-10-27T11:02:52Z</time>
      </trkpt>
      <trkpt lat="42.416147000" lon="-2.710047000">
        <ele>529.80</ele>
        <time>2012-10-27T11:02:57Z</time>
      </trkpt>
      <trkpt lat="42.416207000" lon="-2.710125000">
        <ele>529.40</ele>
        <time>2012-10-27T11:02:59Z</time>
      </trkpt>
      <trkpt lat="42.416348000" lon="-2.710796000">
        <ele>527.20</ele>
        <time>2012-10-27T11:03:09Z</time>
      </trkpt>
      <trkpt lat="42.416386000" lon="-2.710985000">
        <ele>527.00</ele>
        <time>2012-10-27T11:03:13Z</time>
      </trkpt>
      <trkpt lat="42.416428000" lon="-2.711249000">
        <ele>526.90</ele>
        <time>2012-10-27T11:03:16Z</time>
      </trkpt>
      <trkpt lat="42.416586000" lon="-2.712290000">
        <ele>525.80</ele>
        <time>2012-10-27T11:03:32Z</time>
      </trkpt>
      <trkpt lat="42.416712000" lon="-2.712906000">
        <ele>525.80</ele>
        <time>2012-10-27T11:03:42Z</time>
      </trkpt>
      <trkpt lat="42.416956000" lon="-2.713880000">
        <ele>525.50</ele>
        <time>2012-10-27T11:03:58Z</time>
      </trkpt>
      <trkpt lat="42.416988000" lon="-2.714067000">
        <ele>524.90</ele>
        <time>2012-10-27T11:04:02Z</time>
      </trkpt>
      <trkpt lat="42.417212000" lon="-2.714837000">
        <ele>523.90</ele>
        <time>2012-10-27T11:04:14Z</time>
      </trkpt>
      <trkpt lat="42.417362000" lon="-2.715060000">
        <ele>523.40</ele>
        <time>2012-10-27T11:04:19Z</time>
      </trkpt>
      <trkpt lat="42.417709000" lon="-2.715391000">
        <ele>521.90</ele>
        <time>2012-10-27T11:04:31Z</time>
      </trkpt>
      <trkpt lat="42.417691000" lon="-2.715520000">
        <ele>521.80</ele>
        <time>2012-10-27T11:04:35Z</time>
      </trkpt>
      <trkpt lat="42.417649000" lon="-2.715645000">
        <ele>521.40</ele>
        <time>2012-10-27T11:04:38Z</time>
      </trkpt>
      <trkpt lat="42.417610000" lon="-2.715881000">
        <ele>520.20</ele>
        <time>2012-10-27T11:04:42Z</time>
      </trkpt>
      <trkpt lat="42.417645000" lon="-2.716227000">
        <ele>519.00</ele>
        <time>2012-10-27T11:04:47Z</time>
      </trkpt>
      <trkpt lat="42.417700000" lon="-2.716384000">
        <ele>518.70</ele>
        <time>2012-10-27T11:04:50Z</time>
      </trkpt>
      <trkpt lat="42.417961000" lon="-2.717296000">
        <ele>518.80</ele>
        <time>2012-10-27T11:05:08Z</time>
      </trkpt>
      <trkpt lat="42.417979000" lon="-2.717421000">
        <ele>518.80</ele>
        <time>2012-10-27T11:05:10Z</time>
      </trkpt>
      <trkpt lat="42.417984000" lon="-2.717637000">
        <ele>517.30</ele>
        <time>2012-10-27T11:05:13Z</time>
      </trkpt>
      <trkpt lat="42.418045000" lon="-2.717910000">
        <ele>515.90</ele>
        <time>2012-10-27T11:05:17Z</time>
      </trkpt>
      <trkpt lat="42.418471000" lon="-2.719112000">
        <ele>513.60</ele>
        <time>2012-10-27T11:05:36Z</time>
      </trkpt>
      <trkpt lat="42.418539000" lon="-2.719774000">
        <ele>512.60</ele>
        <time>2012-10-27T11:05:46Z</time>
      </trkpt>
      <trkpt lat="42.418544000" lon="-2.719998000">
        <ele>512.60</ele>
        <time>2012-10-27T11:05:50Z</time>
      </trkpt>
      <trkpt lat="42.418568000" lon="-2.720180000">
        <ele>512.40</ele>
        <time>2012-10-27T11:05:53Z</time>
      </trkpt>
      <trkpt lat="42.418640000" lon="-2.720479000">
        <ele>511.70</ele>
        <time>2012-10-27T11:06:05Z</time>
      </trkpt>
      <trkpt lat="42.418639000" lon="-2.720484000">
        <ele>512.30</ele>
        <time>2012-10-27T11:06:21Z</time>
      </trkpt>
      <trkpt lat="42.418611000" lon="-2.720458000">
        <ele>511.20</ele>
        <time>2012-10-27T11:06:42Z</time>
      </trkpt>
      <trkpt lat="42.418617000" lon="-2.720453000">
        <ele>511.10</ele>
        <time>2012-10-27T11:07:34Z</time>
      </trkpt>
      <trkpt lat="42.418611000" lon="-2.720443000">
        <ele>511.20</ele>
        <time>2012-10-27T11:07:57Z</time>
      </trkpt>
      <trkpt lat="42.418616000" lon="-2.720457000">
        <ele>511.30</ele>
        <time>2012-10-27T11:08:32Z</time>
      </trkpt>
      <trkpt lat="42.418621000" lon="-2.720448000">
        <ele>511.40</ele>
        <time>2012-10-27T11:09:31Z</time>
      </trkpt>
      <trkpt lat="42.418621000" lon="-2.720450000">
        <ele>511.90</ele>
        <time>2012-10-27T11:10:07Z</time>
      </trkpt>
      <trkpt lat="42.418622000" lon="-2.720447000">
        <ele>511.90</ele>
        <time>2012-10-27T11:10:49Z</time>
      </trkpt>
      <trkpt lat="42.418620000" lon="-2.720445000">
        <ele>512.50</ele>
        <time>2012-10-27T11:12:13Z</time>
      </trkpt>
      <trkpt lat="42.418609000" lon="-2.720452000">
        <ele>512.30</ele>
        <time>2012-10-27T11:13:05Z</time>
      </trkpt>
      <trkpt lat="42.418593000" lon="-2.720822000">
        <ele>513.60</ele>
        <time>2012-10-27T11:13:17Z</time>
      </trkpt>
      <trkpt lat="42.418579000" lon="-2.721527000">
        <ele>513.00</ele>
        <time>2012-10-27T11:13:31Z</time>
      </trkpt>
      <trkpt lat="42.418560000" lon="-2.721695000">
        <ele>512.90</ele>
        <time>2012-10-27T11:13:33Z</time>
      </trkpt>
      <trkpt lat="42.418504000" lon="-2.722261000">
        <ele>515.00</ele>
        <time>2012-10-27T11:13:45Z</time>
      </trkpt>
      <trkpt lat="42.418452000" lon="-2.723090000">
        <ele>514.40</ele>
        <time>2012-10-27T11:13:59Z</time>
      </trkpt>
      <trkpt lat="42.418373000" lon="-2.724056000">
        <ele>509.70</ele>
        <time>2012-10-27T11:14:15Z</time>
      </trkpt>
      <trkpt lat="42.418265000" lon="-2.724890000">
        <ele>507.60</ele>
        <time>2012-10-27T11:14:32Z</time>
      </trkpt>
      <trkpt lat="42.418252000" lon="-2.725037000">
        <ele>507.50</ele>
        <time>2012-10-27T11:14:36Z</time>
      </trkpt>
      <trkpt lat="42.418479000" lon="-2.725400000">
        <ele>509.10</ele>
        <time>2012-10-27T11:14:48Z</time>
      </trkpt>
      <trkpt lat="42.418482000" lon="-2.725601000">
        <ele>509.10</ele>
        <time>2012-10-27T11:14:51Z</time>
      </trkpt>
      <trkpt lat="42.418438000" lon="-2.725694000">
        <ele>509.20</ele>
        <time>2012-10-27T11:14:53Z</time>
      </trkpt>
      <trkpt lat="42.418371000" lon="-2.725907000">
        <ele>508.40</ele>
        <time>2012-10-27T11:14:58Z</time>
      </trkpt>
      <trkpt lat="42.418226000" lon="-2.726561000">
        <ele>508.70</ele>
        <time>2012-10-27T11:15:09Z</time>
      </trkpt>
      <trkpt lat="42.418011000" lon="-2.727650000">
        <ele>502.20</ele>
        <time>2012-10-27T11:15:23Z</time>
      </trkpt>
      <trkpt lat="42.417949000" lon="-2.727931000">
        <ele>499.30</ele>
        <time>2012-10-27T11:15:26Z</time>
      </trkpt>
      <trkpt lat="42.417893000" lon="-2.728221000">
        <ele>497.00</ele>
        <time>2012-10-27T11:15:30Z</time>
      </trkpt>
      <trkpt lat="42.417607000" lon="-2.729158000">
        <ele>490.20</ele>
        <time>2012-10-27T11:15:38Z</time>
      </trkpt>
      <trkpt lat="42.417440000" lon="-2.729397000">
        <ele>488.20</ele>
        <time>2012-10-27T11:15:42Z</time>
      </trkpt>
      <trkpt lat="42.417263000" lon="-2.729631000">
        <ele>485.20</ele>
        <time>2012-10-27T11:15:49Z</time>
      </trkpt>
      <trkpt lat="42.417214000" lon="-2.730089000">
        <ele>485.90</ele>
        <time>2012-10-27T11:16:01Z</time>
      </trkpt>
      <trkpt lat="42.417139000" lon="-2.730249000">
        <ele>486.40</ele>
        <time>2012-10-27T11:16:15Z</time>
      </trkpt>
      <trkpt lat="42.417082000" lon="-2.730333000">
        <ele>486.50</ele>
        <time>2012-10-27T11:16:17Z</time>
      </trkpt>
      <trkpt lat="42.416817000" lon="-2.731017000">
        <ele>490.90</ele>
        <time>2012-10-27T11:16:29Z</time>
      </trkpt>
      <trkpt lat="42.416910000" lon="-2.731258000">
        <ele>491.30</ele>
        <time>2012-10-27T11:16:32Z</time>
      </trkpt>
      <trkpt lat="42.417122000" lon="-2.731628000">
        <ele>489.80</ele>
        <time>2012-10-27T11:16:38Z</time>
      </trkpt>
      <trkpt lat="42.417178000" lon="-2.731748000">
        <ele>490.00</ele>
        <time>2012-10-27T11:16:41Z</time>
      </trkpt>
      <trkpt lat="42.417285000" lon="-2.731890000">
        <ele>490.40</ele>
        <time>2012-10-27T11:16:43Z</time>
      </trkpt>
      <trkpt lat="42.417413000" lon="-2.732440000">
        <ele>492.00</ele>
        <time>2012-10-27T11:16:57Z</time>
      </trkpt>
      <trkpt lat="42.417443000" lon="-2.732605000">
        <ele>491.30</ele>
        <time>2012-10-27T11:17:02Z</time>
      </trkpt>
      <trkpt lat="42.417474000" lon="-2.732844000">
        <ele>493.90</ele>
        <time>2012-10-27T11:17:11Z</time>
      </trkpt>
      <trkpt lat="42.417470000" lon="-2.732900000">
        <ele>493.90</ele>
        <time>2012-10-27T11:17:12Z</time>
      </trkpt>
      <trkpt lat="42.417612000" lon="-2.733327000">
        <ele>491.70</ele>
        <time>2012-10-27T11:17:25Z</time>
      </trkpt>
      <trkpt lat="42.417926000" lon="-2.733392000">
        <ele>491.90</ele>
        <time>2012-10-27T11:17:32Z</time>
      </trkpt>
      <trkpt lat="42.418132000" lon="-2.733805000">
        <ele>492.70</ele>
        <time>2012-10-27T11:17:42Z</time>
      </trkpt>
      <trkpt lat="42.418273000" lon="-2.734014000">
        <ele>494.20</ele>
        <time>2012-10-27T11:17:47Z</time>
      </trkpt>
      <trkpt lat="42.418475000" lon="-2.734410000">
        <ele>495.50</ele>
        <time>2012-10-27T11:17:56Z</time>
      </trkpt>
      <trkpt lat="42.418504000" lon="-2.734542000">
        <ele>495.30</ele>
        <time>2012-10-27T11:17:59Z</time>
      </trkpt>
      <trkpt lat="42.418382000" lon="-2.734696000">
        <ele>494.70</ele>
        <time>2012-10-27T11:18:05Z</time>
      </trkpt>
      <trkpt lat="42.417912000" lon="-2.734900000">
        <ele>496.10</ele>
        <time>2012-10-27T11:18:19Z</time>
      </trkpt>
      <trkpt lat="42.417804000" lon="-2.734882000">
        <ele>496.60</ele>
        <time>2012-10-27T11:18:24Z</time>
      </trkpt>
      <trkpt lat="42.417450000" lon="-2.735081000">
        <ele>498.60</ele>
        <time>2012-10-27T11:18:34Z</time>
      </trkpt>
      <trkpt lat="42.417190000" lon="-2.735274000">
        <ele>499.80</ele>
        <time>2012-10-27T11:18:41Z</time>
      </trkpt>
      <trkpt lat="42.417063000" lon="-2.735285000">
        <ele>498.80</ele>
        <time>2012-10-27T11:18:45Z</time>
      </trkpt>
      <trkpt lat="42.416669000" lon="-2.735226000">
        <ele>499.10</ele>
        <time>2012-10-27T11:18:59Z</time>
      </trkpt>
      <trkpt lat="42.416568000" lon="-2.734958000">
        <ele>498.90</ele>
        <time>2012-10-27T11:19:07Z</time>
      </trkpt>
      <trkpt lat="42.416575000" lon="-2.734601000">
        <ele>499.50</ele>
        <time>2012-10-27T11:19:18Z</time>
      </trkpt>
      <trkpt lat="42.416560000" lon="-2.734568000">
        <ele>499.40</ele>
        <time>2012-10-27T11:19:21Z</time>
      </trkpt>
      <trkpt lat="42.416561000" lon="-2.734490000">
        <ele>499.70</ele>
        <time>2012-10-27T11:19:30Z</time>
      </trkpt>
      <trkpt lat="42.416573000" lon="-2.734610000">
        <ele>499.60</ele>
        <time>2012-10-27T11:19:37Z</time>
      </trkpt>
      <trkpt lat="42.416923000" lon="-2.734667000">
        <ele>498.20</ele>
        <time>2012-10-27T11:19:51Z</time>
      </trkpt>
      <trkpt lat="42.417175000" lon="-2.734684000">
        <ele>496.40</ele>
        <time>2012-10-27T11:20:00Z</time>
      </trkpt>
      <trkpt lat="42.417195000" lon="-2.734661000">
        <ele>497.20</ele>
        <time>2012-10-27T11:20:14Z</time>
      </trkpt>
      <trkpt lat="42.417190000" lon="-2.734664000">
        <ele>497.20</ele>
        <time>2012-10-27T11:21:01Z</time>
      </trkpt>
      <trkpt lat="42.417075000" lon="-2.734693000">
        <ele>497.60</ele>
        <time>2012-10-27T11:21:09Z</time>
      </trkpt>
      <trkpt lat="42.416989000" lon="-2.734658000">
        <ele>498.00</ele>
        <time>2012-10-27T11:21:13Z</time>
      </trkpt>
      <trkpt lat="42.416925000" lon="-2.734608000">
        <ele>497.90</ele>
        <time>2012-10-27T11:21:16Z</time>
      </trkpt>
      <trkpt lat="42.416834000" lon="-2.734595000">
        <ele>497.40</ele>
        <time>2012-10-27T11:21:20Z</time>
      </trkpt>
      <trkpt lat="42.416647000" lon="-2.734628000">
        <ele>497.50</ele>
        <time>2012-10-27T11:21:27Z</time>
      </trkpt>
      <trkpt lat="42.416652000" lon="-2.734856000">
        <ele>496.80</ele>
        <time>2012-10-27T11:21:37Z</time>
      </trkpt>
      <trkpt lat="42.416723000" lon="-2.735103000">
        <ele>493.70</ele>
        <time>2012-10-27T11:21:46Z</time>
      </trkpt>
      <trkpt lat="42.416308000" lon="-2.735256000">
        <ele>490.10</ele>
        <time>2012-10-27T11:22:00Z</time>
      </trkpt>
      <trkpt lat="42.416012000" lon="-2.735435000">
        <ele>488.70</ele>
        <time>2012-10-27T11:22:10Z</time>
      </trkpt>
      <trkpt lat="42.415849000" lon="-2.735446000">
        <ele>493.80</ele>
        <time>2012-10-27T11:22:21Z</time>
      </trkpt>
      <trkpt lat="42.415854000" lon="-2.735380000">
        <ele>496.80</ele>
        <time>2012-10-27T11:22:54Z</time>
      </trkpt>
      <trkpt lat="42.415855000" lon="-2.735342000">
        <ele>496.40</ele>
        <time>2012-10-27T11:23:08Z</time>
      </trkpt>
      <trkpt lat="42.415843000" lon="-2.735344000">
        <ele>495.80</ele>
        <time>2012-10-27T11:36:15Z</time>
      </trkpt>
      <trkpt lat="42.415860000" lon="-2.735368000">
        <ele>496.30</ele>
        <time>2012-10-27T11:36:31Z</time>
      </trkpt>
      <trkpt lat="42.415862000" lon="-2.735372000">
        <ele>496.30</ele>
        <time>2012-10-27T11:37:07Z</time>
      </trkpt>
      <trkpt lat="42.415862000" lon="-2.735373000">
        <ele>496.20</ele>
        <time>2012-10-27T11:37:37Z</time>
      </trkpt>
      <trkpt lat="42.415903000" lon="-2.735307000">
        <ele>495.60</ele>
        <time>2012-10-27T11:37:42Z</time>
      </trkpt>
      <trkpt lat="42.415947000" lon="-2.735151000">
        <ele>494.60</ele>
        <time>2012-10-27T11:37:44Z</time>
      </trkpt>
      <trkpt lat="42.415996000" lon="-2.735037000">
        <ele>494.40</ele>
        <time>2012-10-27T11:37:46Z</time>
      </trkpt>
      <trkpt lat="42.416024000" lon="-2.734868000">
        <ele>494.20</ele>
        <time>2012-10-27T11:37:49Z</time>
      </trkpt>
      <trkpt lat="42.416034000" lon="-2.734631000">
        <ele>494.00</ele>
        <time>2012-10-27T11:37:53Z</time>
      </trkpt>
      <trkpt lat="42.416161000" lon="-2.734394000">
        <ele>492.20</ele>
        <time>2012-10-27T11:38:01Z</time>
      </trkpt>
      <trkpt lat="42.416180000" lon="-2.734395000">
        <ele>491.10</ele>
        <time>2012-10-27T11:38:07Z</time>
      </trkpt>
      <trkpt lat="42.416130000" lon="-2.734444000">
        <ele>489.80</ele>
        <time>2012-10-27T11:38:12Z</time>
      </trkpt>
      <trkpt lat="42.416114000" lon="-2.734284000">
        <ele>491.30</ele>
        <time>2012-10-27T11:38:19Z</time>
      </trkpt>
      <trkpt lat="42.416146000" lon="-2.734017000">
        <ele>492.80</ele>
        <time>2012-10-27T11:38:26Z</time>
      </trkpt>
      <trkpt lat="42.415936000" lon="-2.733661000">
        <ele>495.20</ele>
        <time>2012-10-27T11:38:40Z</time>
      </trkpt>
      <trkpt lat="42.415958000" lon="-2.733660000">
        <ele>495.10</ele>
        <time>2012-10-27T11:38:48Z</time>
      </trkpt>
      <trkpt lat="42.416037000" lon="-2.733629000">
        <ele>495.80</ele>
        <time>2012-10-27T11:38:54Z</time>
      </trkpt>
      <trkpt lat="42.416047000" lon="-2.733557000">
        <ele>496.40</ele>
        <time>2012-10-27T11:38:59Z</time>
      </trkpt>
      <trkpt lat="42.415881000" lon="-2.732855000">
        <ele>493.50</ele>
        <time>2012-10-27T11:39:20Z</time>
      </trkpt>
      <trkpt lat="42.415826000" lon="-2.732650000">
        <ele>494.30</ele>
        <time>2012-10-27T11:39:27Z</time>
      </trkpt>
      <trkpt lat="42.415966000" lon="-2.732550000">
        <ele>492.20</ele>
        <time>2012-10-27T11:39:39Z</time>
      </trkpt>
      <trkpt lat="42.415955000" lon="-2.732542000">
        <ele>491.90</ele>
        <time>2012-10-27T11:39:41Z</time>
      </trkpt>
      <trkpt lat="42.415916000" lon="-2.732558000">
        <ele>491.00</ele>
        <time>2012-10-27T11:39:44Z</time>
      </trkpt>
      <trkpt lat="42.415845000" lon="-2.732507000">
        <ele>491.40</ele>
        <time>2012-10-27T11:39:48Z</time>
      </trkpt>
      <trkpt lat="42.415795000" lon="-2.732371000">
        <ele>491.20</ele>
        <time>2012-10-27T11:39:53Z</time>
      </trkpt>
      <trkpt lat="42.415738000" lon="-2.732050000">
        <ele>492.50</ele>
        <time>2012-10-27T11:40:07Z</time>
      </trkpt>
      <trkpt lat="42.415732000" lon="-2.732014000">
        <ele>492.90</ele>
        <time>2012-10-27T11:40:10Z</time>
      </trkpt>
      <trkpt lat="42.415720000" lon="-2.731944000">
        <ele>493.40</ele>
        <time>2012-10-27T11:40:12Z</time>
      </trkpt>
      <trkpt lat="42.415836000" lon="-2.731807000">
        <ele>494.30</ele>
        <time>2012-10-27T11:40:17Z</time>
      </trkpt>
      <trkpt lat="42.416094000" lon="-2.731805000">
        <ele>492.80</ele>
        <time>2012-10-27T11:40:26Z</time>
      </trkpt>
      <trkpt lat="42.416351000" lon="-2.731819000">
        <ele>492.90</ele>
        <time>2012-10-27T11:40:35Z</time>
      </trkpt>
      <trkpt lat="42.416393000" lon="-2.731848000">
        <ele>493.00</ele>
        <time>2012-10-27T11:40:35Z</time>
      </trkpt>
      <trkpt lat="42.416575000" lon="-2.731826000">
        <ele>493.80</ele>
        <time>2012-10-27T11:40:43Z</time>
      </trkpt>
      <trkpt lat="42.416600000" lon="-2.731740000">
        <ele>495.60</ele>
        <time>2012-10-27T11:40:47Z</time>
      </trkpt>
      <trkpt lat="42.416579000" lon="-2.731446000">
        <ele>496.50</ele>
        <time>2012-10-27T11:40:56Z</time>
      </trkpt>
      <trkpt lat="42.416817000" lon="-2.731259000">
        <ele>498.20</ele>
        <time>2012-10-27T11:41:04Z</time>
      </trkpt>
      <trkpt lat="42.416977000" lon="-2.730689000">
        <ele>496.90</ele>
        <time>2012-10-27T11:41:17Z</time>
      </trkpt>
      <trkpt lat="42.417030000" lon="-2.730377000">
        <ele>497.50</ele>
        <time>2012-10-27T11:41:23Z</time>
      </trkpt>
      <trkpt lat="42.416979000" lon="-2.730245000">
        <ele>496.60</ele>
        <time>2012-10-27T11:41:27Z</time>
      </trkpt>
      <trkpt lat="42.416943000" lon="-2.730107000">
        <ele>494.90</ele>
        <time>2012-10-27T11:41:32Z</time>
      </trkpt>
      <trkpt lat="42.416832000" lon="-2.729990000">
        <ele>493.60</ele>
        <time>2012-10-27T11:41:37Z</time>
      </trkpt>
      <trkpt lat="42.416801000" lon="-2.729213000">
        <ele>492.60</ele>
        <time>2012-10-27T11:41:53Z</time>
      </trkpt>
      <trkpt lat="42.416653000" lon="-2.728429000">
        <ele>499.50</ele>
        <time>2012-10-27T11:42:09Z</time>
      </trkpt>
      <trkpt lat="42.416604000" lon="-2.728395000">
        <ele>499.50</ele>
        <time>2012-10-27T11:42:09Z</time>
      </trkpt>
      <trkpt lat="42.416637000" lon="-2.728214000">
        <ele>501.00</ele>
        <time>2012-10-27T11:42:14Z</time>
      </trkpt>
      <trkpt lat="42.416545000" lon="-2.727820000">
        <ele>501.00</ele>
        <time>2012-10-27T11:42:21Z</time>
      </trkpt>
      <trkpt lat="42.416467000" lon="-2.727652000">
        <ele>501.40</ele>
        <time>2012-10-27T11:42:23Z</time>
      </trkpt>
      <trkpt lat="42.416415000" lon="-2.727514000">
        <ele>501.70</ele>
        <time>2012-10-27T11:42:26Z</time>
      </trkpt>
      <trkpt lat="42.416598000" lon="-2.727355000">
        <ele>501.90</ele>
        <time>2012-10-27T11:42:31Z</time>
      </trkpt>
      <trkpt lat="42.417147000" lon="-2.726865000">
        <ele>502.10</ele>
        <time>2012-10-27T11:42:44Z</time>
      </trkpt>
      <trkpt lat="42.417224000" lon="-2.726829000">
        <ele>502.70</ele>
        <time>2012-10-27T11:42:45Z</time>
      </trkpt>
      <trkpt lat="42.417250000" lon="-2.726599000">
        <ele>504.50</ele>
        <time>2012-10-27T11:42:52Z</time>
      </trkpt>
      <trkpt lat="42.417204000" lon="-2.726395000">
        <ele>505.50</ele>
        <time>2012-10-27T11:42:56Z</time>
      </trkpt>
      <trkpt lat="42.417175000" lon="-2.726233000">
        <ele>504.20</ele>
        <time>2012-10-27T11:42:59Z</time>
      </trkpt>
      <trkpt lat="42.417286000" lon="-2.726001000">
        <ele>505.80</ele>
        <time>2012-10-27T11:43:06Z</time>
      </trkpt>
      <trkpt lat="42.417605000" lon="-2.725959000">
        <ele>510.30</ele>
        <time>2012-10-27T11:43:13Z</time>
      </trkpt>
      <trkpt lat="42.418055000" lon="-2.725973000">
        <ele>517.30</ele>
        <time>2012-10-27T11:43:24Z</time>
      </trkpt>
      <trkpt lat="42.418299000" lon="-2.725874000">
        <ele>512.30</ele>
        <time>2012-10-27T11:43:31Z</time>
      </trkpt>
      <trkpt lat="42.418319000" lon="-2.725738000">
        <ele>513.50</ele>
        <time>2012-10-27T11:43:36Z</time>
      </trkpt>
      <trkpt lat="42.418391000" lon="-2.725366000">
        <ele>512.70</ele>
        <time>2012-10-27T11:43:46Z</time>
      </trkpt>
      <trkpt lat="42.418536000" lon="-2.725299000">
        <ele>511.70</ele>
        <time>2012-10-27T11:43:50Z</time>
      </trkpt>
      <trkpt lat="42.418637000" lon="-2.725216000">
        <ele>511.30</ele>
        <time>2012-10-27T11:43:53Z</time>
      </trkpt>
      <trkpt lat="42.419042000" lon="-2.724851000">
        <ele>510.70</ele>
        <time>2012-10-27T11:44:07Z</time>
      </trkpt>
      <trkpt lat="42.419171000" lon="-2.724409000">
        <ele>510.00</ele>
        <time>2012-10-27T11:44:23Z</time>
      </trkpt>
      <trkpt lat="42.419179000" lon="-2.724380000">
        <ele>509.60</ele>
        <time>2012-10-27T11:44:23Z</time>
      </trkpt>
      <trkpt lat="42.419293000" lon="-2.723856000">
        <ele>510.30</ele>
        <time>2012-10-27T11:44:37Z</time>
      </trkpt>
      <trkpt lat="42.419461000" lon="-2.723006000">
        <ele>508.70</ele>
        <time>2012-10-27T11:44:53Z</time>
      </trkpt>
      <trkpt lat="42.419599000" lon="-2.722300000">
        <ele>508.70</ele>
        <time>2012-10-27T11:45:05Z</time>
      </trkpt>
      <trkpt lat="42.419428000" lon="-2.722062000">
        <ele>508.70</ele>
        <time>2012-10-27T11:45:12Z</time>
      </trkpt>
      <trkpt lat="42.419383000" lon="-2.722056000">
        <ele>508.50</ele>
        <time>2012-10-27T11:45:12Z</time>
      </trkpt>
      <trkpt lat="42.419179000" lon="-2.722026000">
        <ele>509.20</ele>
        <time>2012-10-27T11:45:17Z</time>
      </trkpt>
      <trkpt lat="42.419071000" lon="-2.721865000">
        <ele>510.00</ele>
        <time>2012-10-27T11:45:22Z</time>
      </trkpt>
      <trkpt lat="42.419084000" lon="-2.721760000">
        <ele>510.20</ele>
        <time>2012-10-27T11:45:24Z</time>
      </trkpt>
      <trkpt lat="42.418747000" lon="-2.721623000">
        <ele>514.10</ele>
        <time>2012-10-27T11:45:34Z</time>
      </trkpt>
      <trkpt lat="42.418638000" lon="-2.721619000">
        <ele>515.40</ele>
        <time>2012-10-27T11:45:36Z</time>
      </trkpt>
      <trkpt lat="42.418566000" lon="-2.721439000">
        <ele>511.40</ele>
        <time>2012-10-27T11:45:40Z</time>
      </trkpt>
      <trkpt lat="42.418597000" lon="-2.720779000">
        <ele>509.80</ele>
        <time>2012-10-27T11:45:52Z</time>
      </trkpt>
      <trkpt lat="42.418555000" lon="-2.719837000">
        <ele>509.90</ele>
        <time>2012-10-27T11:46:09Z</time>
      </trkpt>
      <trkpt lat="42.418439000" lon="-2.719001000">
        <ele>512.50</ele>
        <time>2012-10-27T11:46:28Z</time>
      </trkpt>
      <trkpt lat="42.418189000" lon="-2.718272000">
        <ele>512.50</ele>
        <time>2012-10-27T11:46:42Z</time>
      </trkpt>
      <trkpt lat="42.417956000" lon="-2.717342000">
        <ele>516.10</ele>
        <time>2012-10-27T11:47:03Z</time>
      </trkpt>
      <trkpt lat="42.417717000" lon="-2.716397000">
        <ele>517.80</ele>
        <time>2012-10-27T11:47:19Z</time>
      </trkpt>
      <trkpt lat="42.417582000" lon="-2.715993000">
        <ele>518.40</ele>
        <time>2012-10-27T11:47:28Z</time>
      </trkpt>
      <trkpt lat="42.417599000" lon="-2.715750000">
        <ele>519.00</ele>
        <time>2012-10-27T11:47:33Z</time>
      </trkpt>
      <trkpt lat="42.417631000" lon="-2.715614000">
        <ele>519.80</ele>
        <time>2012-10-27T11:47:36Z</time>
      </trkpt>
      <trkpt lat="42.417626000" lon="-2.715577000">
        <ele>520.00</ele>
        <time>2012-10-27T11:47:38Z</time>
      </trkpt>
      <trkpt lat="42.417686000" lon="-2.715423000">
        <ele>520.00</ele>
        <time>2012-10-27T11:47:43Z</time>
      </trkpt>
      <trkpt lat="42.417576000" lon="-2.715259000">
        <ele>520.70</ele>
        <time>2012-10-27T11:47:54Z</time>
      </trkpt>
      <trkpt lat="42.417576000" lon="-2.715261000">
        <ele>520.60</ele>
        <time>2012-10-27T11:48:13Z</time>
      </trkpt>
      <trkpt lat="42.417541000" lon="-2.715217000">
        <ele>520.50</ele>
        <time>2012-10-27T11:48:16Z</time>
      </trkpt>
      <trkpt lat="42.417251000" lon="-2.714960000">
        <ele>520.30</ele>
        <time>2012-10-27T11:48:30Z</time>
      </trkpt>
      <trkpt lat="42.416922000" lon="-2.713882000">
        <ele>521.50</ele>
        <time>2012-10-27T11:48:55Z</time>
      </trkpt>
      <trkpt lat="42.416684000" lon="-2.712957000">
        <ele>522.90</ele>
        <time>2012-10-27T11:49:17Z</time>
      </trkpt>
      <trkpt lat="42.416500000" lon="-2.711868000">
        <ele>524.70</ele>
        <time>2012-10-27T11:49:40Z</time>
      </trkpt>
      <trkpt lat="42.416347000" lon="-2.710875000">
        <ele>525.80</ele>
        <time>2012-10-27T11:49:59Z</time>
      </trkpt>
      <trkpt lat="42.416126000" lon="-2.710007000">
        <ele>527.70</ele>
        <time>2012-10-27T11:50:18Z</time>
      </trkpt>
      <trkpt lat="42.416096000" lon="-2.709638000">
        <ele>527.90</ele>
        <time>2012-10-27T11:50:29Z</time>
      </trkpt>
      <trkpt lat="42.416059000" lon="-2.709042000">
        <ele>528.40</ele>
        <time>2012-10-27T11:50:39Z</time>
      </trkpt>
      <trkpt lat="42.415932000" lon="-2.707973000">
        <ele>528.20</ele>
        <time>2012-10-27T11:50:58Z</time>
      </trkpt>
      <trkpt lat="42.415841000" lon="-2.707366000">
        <ele>528.80</ele>
        <time>2012-10-27T11:51:07Z</time>
      </trkpt>
      <trkpt lat="42.415801000" lon="-2.706901000">
        <ele>528.80</ele>
        <time>2012-10-27T11:51:16Z</time>
      </trkpt>
      <trkpt lat="42.415796000" lon="-2.706378000">
        <ele>528.10</ele>
        <time>2012-10-27T11:51:23Z</time>
      </trkpt>
      <trkpt lat="42.415704000" lon="-2.705069000">
        <ele>527.90</ele>
        <time>2012-10-27T11:51:44Z</time>
      </trkpt>
      <trkpt lat="42.415628000" lon="-2.704381000">
        <ele>527.40</ele>
        <time>2012-10-27T11:51:54Z</time>
      </trkpt>
      <trkpt lat="42.415448000" lon="-2.703147000">
        <ele>526.70</ele>
        <time>2012-10-27T11:52:15Z</time>
      </trkpt>
      <trkpt lat="42.415375000" lon="-2.702607000">
        <ele>527.30</ele>
        <time>2012-10-27T11:52:24Z</time>
      </trkpt>
      <trkpt lat="42.415521000" lon="-2.701779000">
        <ele>527.50</ele>
        <time>2012-10-27T11:52:36Z</time>
      </trkpt>
      <trkpt lat="42.415667000" lon="-2.700485000">
        <ele>528.40</ele>
        <time>2012-10-27T11:52:53Z</time>
      </trkpt>
      <trkpt lat="42.415773000" lon="-2.700177000">
        <ele>529.80</ele>
        <time>2012-10-27T11:52:59Z</time>
      </trkpt>
      <trkpt lat="42.416054000" lon="-2.699952000">
        <ele>530.20</ele>
        <time>2012-10-27T11:53:05Z</time>
      </trkpt>
      <trkpt lat="42.416069000" lon="-2.699648000">
        <ele>529.30</ele>
        <time>2012-10-27T11:53:12Z</time>
      </trkpt>
      <trkpt lat="42.415547000" lon="-2.699470000">
        <ele>529.50</ele>
        <time>2012-10-27T11:53:23Z</time>
      </trkpt>
      <trkpt lat="42.415393000" lon="-2.699416000">
        <ele>528.60</ele>
        <time>2012-10-27T11:53:26Z</time>
      </trkpt>
      <trkpt lat="42.415227000" lon="-2.699298000">
        <ele>529.10</ele>
        <time>2012-10-27T11:53:30Z</time>
      </trkpt>
      <trkpt lat="42.415065000" lon="-2.699146000">
        <ele>531.70</ele>
        <time>2012-10-27T11:53:35Z</time>
      </trkpt>
      <trkpt lat="42.414738000" lon="-2.698906000">
        <ele>532.40</ele>
        <time>2012-10-27T11:53:44Z</time>
      </trkpt>
      <trkpt lat="42.414480000" lon="-2.698711000">
        <ele>533.60</ele>
        <time>2012-10-27T11:53:51Z</time>
      </trkpt>
      <trkpt lat="42.414321000" lon="-2.698546000">
        <ele>532.90</ele>
        <time>2012-10-27T11:53:56Z</time>
      </trkpt>
      <trkpt lat="42.414334000" lon="-2.698467000">
        <ele>534.40</ele>
        <time>2012-10-27T11:54:03Z</time>
      </trkpt>
      <trkpt lat="42.414366000" lon="-2.698378000">
        <ele>534.60</ele>
        <time>2012-10-27T11:54:22Z</time>
      </trkpt>
      <trkpt lat="42.414391000" lon="-2.698312000">
        <ele>534.80</ele>
        <time>2012-10-27T11:54:36Z</time>
      </trkpt>
      <trkpt lat="42.414403000" lon="-2.698275000">
        <ele>534.70</ele>
        <time>2012-10-27T11:56:14Z</time>
      </trkpt>
      <trkpt lat="42.414434000" lon="-2.698225000">
        <ele>536.90</ele>
        <time>2012-10-27T11:56:26Z</time>
      </trkpt>
      <trkpt lat="42.414458000" lon="-2.698180000">
        <ele>536.60</ele>
        <time>2012-10-27T11:56:31Z</time>
      </trkpt>
      <trkpt lat="42.414458000" lon="-2.698129000">
        <ele>536.70</ele>
        <time>2012-10-27T11:56:45Z</time>
      </trkpt>
      <trkpt lat="42.414462000" lon="-2.698125000">
        <ele>536.70</ele>
        <time>2012-10-27T11:56:52Z</time>
      </trkpt>
      <trkpt lat="42.414307000" lon="-2.697782000">
        <ele>537.60</ele>
        <time>2012-10-27T11:57:04Z</time>
      </trkpt>
      <trkpt lat="42.414126000" lon="-2.697159000">
        <ele>536.50</ele>
        <time>2012-10-27T11:57:16Z</time>
      </trkpt>
      <trkpt lat="42.414111000" lon="-2.696928000">
        <ele>536.20</ele>
        <time>2012-10-27T11:57:20Z</time>
      </trkpt>
      <trkpt lat="42.414238000" lon="-2.696236000">
        <ele>535.00</ele>
        <time>2012-10-27T11:57:30Z</time>
      </trkpt>
      <trkpt lat="42.414149000" lon="-2.695326000">
        <ele>536.50</ele>
        <time>2012-10-27T11:57:46Z</time>
      </trkpt>
      <trkpt lat="42.414150000" lon="-2.694972000">
        <ele>537.40</ele>
        <time>2012-10-27T11:57:53Z</time>
      </trkpt>
      <trkpt lat="42.414076000" lon="-2.694722000">
        <ele>538.60</ele>
        <time>2012-10-27T11:57:58Z</time>
      </trkpt>
      <trkpt lat="42.413650000" lon="-2.694058000">
        <ele>541.40</ele>
        <time>2012-10-27T11:58:17Z</time>
      </trkpt>
      <trkpt lat="42.413471000" lon="-2.693324000">
        <ele>544.60</ele>
        <time>2012-10-27T11:58:33Z</time>
      </trkpt>
      <trkpt lat="42.413252000" lon="-2.692150000">
        <ele>550.80</ele>
        <time>2012-10-27T11:58:59Z</time>
      </trkpt>
      <trkpt lat="42.413249000" lon="-2.691153000">
        <ele>553.40</ele>
        <time>2012-10-27T11:59:18Z</time>
      </trkpt>
      <trkpt lat="42.413383000" lon="-2.690153000">
        <ele>556.00</ele>
        <time>2012-10-27T11:59:39Z</time>
      </trkpt>
      <trkpt lat="42.413420000" lon="-2.689041000">
        <ele>556.10</ele>
        <time>2012-10-27T12:00:00Z</time>
      </trkpt>
      <trkpt lat="42.413379000" lon="-2.688338000">
        <ele>557.70</ele>
        <time>2012-10-27T12:00:16Z</time>
      </trkpt>
      <trkpt lat="42.413356000" lon="-2.688003000">
        <ele>559.60</ele>
        <time>2012-10-27T12:00:30Z</time>
      </trkpt>
      <trkpt lat="42.413335000" lon="-2.687517000">
        <ele>559.40</ele>
        <time>2012-10-27T12:00:45Z</time>
      </trkpt>
      <trkpt lat="42.413388000" lon="-2.686795000">
        <ele>560.20</ele>
        <time>2012-10-27T12:01:05Z</time>
      </trkpt>
      <trkpt lat="42.413422000" lon="-2.686485000">
        <ele>561.10</ele>
        <time>2012-10-27T12:01:17Z</time>
      </trkpt>
      <trkpt lat="42.413426000" lon="-2.686385000">
        <ele>561.60</ele>
        <time>2012-10-27T12:01:31Z</time>
      </trkpt>
      <trkpt lat="42.413415000" lon="-2.686399000">
        <ele>561.00</ele>
        <time>2012-10-27T12:01:43Z</time>
      </trkpt>
      <trkpt lat="42.413417000" lon="-2.686391000">
        <ele>561.10</ele>
        <time>2012-10-27T12:03:15Z</time>
      </trkpt>
      <trkpt lat="42.413437000" lon="-2.686289000">
        <ele>562.20</ele>
        <time>2012-10-27T12:03:53Z</time>
      </trkpt>
      <trkpt lat="42.413475000" lon="-2.686243000">
        <ele>562.00</ele>
        <time>2012-10-27T12:03:57Z</time>
      </trkpt>
      <trkpt lat="42.413585000" lon="-2.685821000">
        <ele>563.00</ele>
        <time>2012-10-27T12:04:11Z</time>
      </trkpt>
      <trkpt lat="42.413718000" lon="-2.684987000">
        <ele>564.50</ele>
        <time>2012-10-27T12:04:28Z</time>
      </trkpt>
      <trkpt lat="42.414007000" lon="-2.684016000">
        <ele>566.80</ele>
        <time>2012-10-27T12:04:46Z</time>
      </trkpt>
      <trkpt lat="42.414294000" lon="-2.683006000">
        <ele>570.00</ele>
        <time>2012-10-27T12:05:07Z</time>
      </trkpt>
      <trkpt lat="42.414362000" lon="-2.681787000">
        <ele>572.20</ele>
        <time>2012-10-27T12:05:31Z</time>
      </trkpt>
      <trkpt lat="42.414502000" lon="-2.680524000">
        <ele>573.70</ele>
        <time>2012-10-27T12:05:57Z</time>
      </trkpt>
      <trkpt lat="42.414736000" lon="-2.679613000">
        <ele>576.20</ele>
        <time>2012-10-27T12:06:16Z</time>
      </trkpt>
      <trkpt lat="42.414923000" lon="-2.678555000">
        <ele>577.30</ele>
        <time>2012-10-27T12:06:39Z</time>
      </trkpt>
      <trkpt lat="42.414980000" lon="-2.677841000">
        <ele>577.20</ele>
        <time>2012-10-27T12:06:53Z</time>
      </trkpt>
      <trkpt lat="42.414943000" lon="-2.677530000">
        <ele>575.90</ele>
        <time>2012-10-27T12:06:58Z</time>
      </trkpt>
      <trkpt lat="42.414593000" lon="-2.676652000">
        <ele>574.10</ele>
        <time>2012-10-27T12:07:12Z</time>
      </trkpt>
      <trkpt lat="42.414466000" lon="-2.676405000">
        <ele>574.30</ele>
        <time>2012-10-27T12:07:16Z</time>
      </trkpt>
      <trkpt lat="42.414186000" lon="-2.675964000">
        <ele>574.50</ele>
        <time>2012-10-27T12:07:24Z</time>
      </trkpt>
      <trkpt lat="42.414019000" lon="-2.675652000">
        <ele>574.90</ele>
        <time>2012-10-27T12:07:30Z</time>
      </trkpt>
      <trkpt lat="42.413870000" lon="-2.675177000">
        <ele>573.20</ele>
        <time>2012-10-27T12:07:38Z</time>
      </trkpt>
      <trkpt lat="42.413673000" lon="-2.674528000">
        <ele>571.30</ele>
        <time>2012-10-27T12:07:47Z</time>
      </trkpt>
      <trkpt lat="42.413638000" lon="-2.674175000">
        <ele>570.60</ele>
        <time>2012-10-27T12:07:52Z</time>
      </trkpt>
      <trkpt lat="42.413655000" lon="-2.673982000">
        <ele>570.60</ele>
        <time>2012-10-27T12:07:56Z</time>
      </trkpt>
      <trkpt lat="42.413517000" lon="-2.673182000">
        <ele>572.30</ele>
        <time>2012-10-27T12:08:11Z</time>
      </trkpt>
      <trkpt lat="42.413392000" lon="-2.672739000">
        <ele>575.00</ele>
        <time>2012-10-27T12:08:22Z</time>
      </trkpt>
      <trkpt lat="42.413379000" lon="-2.672469000">
        <ele>578.90</ele>
        <time>2012-10-27T12:08:32Z</time>
      </trkpt>
      <trkpt lat="42.413326000" lon="-2.671874000">
        <ele>580.80</ele>
        <time>2012-10-27T12:08:48Z</time>
      </trkpt>
      <trkpt lat="42.413234000" lon="-2.671274000">
        <ele>583.00</ele>
        <time>2012-10-27T12:09:04Z</time>
      </trkpt>
      <trkpt lat="42.413032000" lon="-2.670695000">
        <ele>586.50</ele>
        <time>2012-10-27T12:09:19Z</time>
      </trkpt>
      <trkpt lat="42.412806000" lon="-2.669991000">
        <ele>588.40</ele>
        <time>2012-10-27T12:09:35Z</time>
      </trkpt>
      <trkpt lat="42.412550000" lon="-2.669069000">
        <ele>589.20</ele>
        <time>2012-10-27T12:09:54Z</time>
      </trkpt>
      <trkpt lat="42.412269000" lon="-2.667998000">
        <ele>590.20</ele>
        <time>2012-10-27T12:10:13Z</time>
      </trkpt>
      <trkpt lat="42.412234000" lon="-2.667829000">
        <ele>590.20</ele>
        <time>2012-10-27T12:10:17Z</time>
      </trkpt>
      <trkpt lat="42.412195000" lon="-2.667675000">
        <ele>590.60</ele>
        <time>2012-10-27T12:10:20Z</time>
      </trkpt>
      <trkpt lat="42.412044000" lon="-2.666765000">
        <ele>592.10</ele>
        <time>2012-10-27T12:10:36Z</time>
      </trkpt>
      <trkpt lat="42.411847000" lon="-2.665733000">
        <ele>595.40</ele>
        <time>2012-10-27T12:10:57Z</time>
      </trkpt>
      <trkpt lat="42.411722000" lon="-2.664733000">
        <ele>599.20</ele>
        <time>2012-10-27T12:11:18Z</time>
      </trkpt>
      <trkpt lat="42.411633000" lon="-2.663894000">
        <ele>602.20</ele>
        <time>2012-10-27T12:11:37Z</time>
      </trkpt>
      <trkpt lat="42.411472000" lon="-2.663504000">
        <ele>601.80</ele>
        <time>2012-10-27T12:11:49Z</time>
      </trkpt>
      <trkpt lat="42.411393000" lon="-2.662995000">
        <ele>604.40</ele>
        <time>2012-10-27T12:12:03Z</time>
      </trkpt>
      <trkpt lat="42.411371000" lon="-2.662712000">
        <ele>603.50</ele>
        <time>2012-10-27T12:12:08Z</time>
      </trkpt>
      <trkpt lat="42.411405000" lon="-2.662318000">
        <ele>602.10</ele>
        <time>2012-10-27T12:12:15Z</time>
      </trkpt>
      <trkpt lat="42.411415000" lon="-2.661302000">
        <ele>603.40</ele>
        <time>2012-10-27T12:12:31Z</time>
      </trkpt>
      <trkpt lat="42.411310000" lon="-2.660138000">
        <ele>604.80</ele>
        <time>2012-10-27T12:12:50Z</time>
      </trkpt>
      <trkpt lat="42.411215000" lon="-2.659330000">
        <ele>605.10</ele>
        <time>2012-10-27T12:13:04Z</time>
      </trkpt>
      <trkpt lat="42.411090000" lon="-2.658404000">
        <ele>607.20</ele>
        <time>2012-10-27T12:13:23Z</time>
      </trkpt>
      <trkpt lat="42.410943000" lon="-2.657491000">
        <ele>609.40</ele>
        <time>2012-10-27T12:13:42Z</time>
      </trkpt>
      <trkpt lat="42.410847000" lon="-2.656575000">
        <ele>610.60</ele>
        <time>2012-10-27T12:14:00Z</time>
      </trkpt>
      <trkpt lat="42.410793000" lon="-2.656122000">
        <ele>610.30</ele>
        <time>2012-10-27T12:14:12Z</time>
      </trkpt>
      <trkpt lat="42.410762000" lon="-2.655861000">
        <ele>609.80</ele>
        <time>2012-10-27T12:14:17Z</time>
      </trkpt>
      <trkpt lat="42.410718000" lon="-2.655417000">
        <ele>611.10</ele>
        <time>2012-10-27T12:14:26Z</time>
      </trkpt>
      <trkpt lat="42.410665000" lon="-2.654713000">
        <ele>614.60</ele>
        <time>2012-10-27T12:14:41Z</time>
      </trkpt>
      <trkpt lat="42.410691000" lon="-2.653840000">
        <ele>614.00</ele>
        <time>2012-10-27T12:14:59Z</time>
      </trkpt>
      <trkpt lat="42.410885000" lon="-2.653233000">
        <ele>616.80</ele>
        <time>2012-10-27T12:15:13Z</time>
      </trkpt>
      <trkpt lat="42.410930000" lon="-2.652847000">
        <ele>619.00</ele>
        <time>2012-10-27T12:15:25Z</time>
      </trkpt>
      <trkpt lat="42.410909000" lon="-2.652071000">
        <ele>616.40</ele>
        <time>2012-10-27T12:15:39Z</time>
      </trkpt>
      <trkpt lat="42.411030000" lon="-2.651317000">
        <ele>616.80</ele>
        <time>2012-10-27T12:15:51Z</time>
      </trkpt>
      <trkpt lat="42.411043000" lon="-2.651249000">
        <ele>617.40</ele>
        <time>2012-10-27T12:15:53Z</time>
      </trkpt>
      <trkpt lat="42.411245000" lon="-2.650834000">
        <ele>619.90</ele>
        <time>2012-10-27T12:16:07Z</time>
      </trkpt>
      <trkpt lat="42.411232000" lon="-2.650739000">
        <ele>619.90</ele>
        <time>2012-10-27T12:16:10Z</time>
      </trkpt>
      <trkpt lat="42.411182000" lon="-2.650613000">
        <ele>618.90</ele>
        <time>2012-10-27T12:16:16Z</time>
      </trkpt>
      <trkpt lat="42.411124000" lon="-2.650522000">
        <ele>618.00</ele>
        <time>2012-10-27T12:16:19Z</time>
      </trkpt>
      <trkpt lat="42.411147000" lon="-2.650278000">
        <ele>620.40</ele>
        <time>2012-10-27T12:16:28Z</time>
      </trkpt>
      <trkpt lat="42.411191000" lon="-2.650193000">
        <ele>620.30</ele>
        <time>2012-10-27T12:16:31Z</time>
      </trkpt>
      <trkpt lat="42.411229000" lon="-2.650122000">
        <ele>620.00</ele>
        <time>2012-10-27T12:16:35Z</time>
      </trkpt>
      <trkpt lat="42.411501000" lon="-2.649897000">
        <ele>620.50</ele>
        <time>2012-10-27T12:16:47Z</time>
      </trkpt>
      <trkpt lat="42.411814000" lon="-2.649612000">
        <ele>625.50</ele>
        <time>2012-10-27T12:17:04Z</time>
      </trkpt>
      <trkpt lat="42.411835000" lon="-2.649594000">
        <ele>625.90</ele>
        <time>2012-10-27T12:17:04Z</time>
      </trkpt>
      <trkpt lat="42.412057000" lon="-2.649438000">
        <ele>630.00</ele>
        <time>2012-10-27T12:17:20Z</time>
      </trkpt>
      <trkpt lat="42.412202000" lon="-2.649212000">
        <ele>634.20</ele>
        <time>2012-10-27T12:17:36Z</time>
      </trkpt>
      <trkpt lat="42.412373000" lon="-2.648874000">
        <ele>639.30</ele>
        <time>2012-10-27T12:17:58Z</time>
      </trkpt>
      <trkpt lat="42.412479000" lon="-2.648706000">
        <ele>640.90</ele>
        <time>2012-10-27T12:18:09Z</time>
      </trkpt>
      <trkpt lat="42.412651000" lon="-2.648517000">
        <ele>643.30</ele>
        <time>2012-10-27T12:18:24Z</time>
      </trkpt>
      <trkpt lat="42.412610000" lon="-2.648158000">
        <ele>645.10</ele>
        <time>2012-10-27T12:18:40Z</time>
      </trkpt>
      <trkpt lat="42.412556000" lon="-2.647728000">
        <ele>646.30</ele>
        <time>2012-10-27T12:18:59Z</time>
      </trkpt>
      <trkpt lat="42.412553000" lon="-2.647436000">
        <ele>647.00</ele>
        <time>2012-10-27T12:19:13Z</time>
      </trkpt>
      <trkpt lat="42.412533000" lon="-2.647162000">
        <ele>647.00</ele>
        <time>2012-10-27T12:20:12Z</time>
      </trkpt>
      <trkpt lat="42.412454000" lon="-2.646540000">
        <ele>649.80</ele>
        <time>2012-10-27T12:20:30Z</time>
      </trkpt>
      <trkpt lat="42.412464000" lon="-2.645923000">
        <ele>649.70</ele>
        <time>2012-10-27T12:20:49Z</time>
      </trkpt>
      <trkpt lat="42.412460000" lon="-2.645869000">
        <ele>650.00</ele>
        <time>2012-10-27T12:20:51Z</time>
      </trkpt>
      <trkpt lat="42.412422000" lon="-2.645346000">
        <ele>654.40</ele>
        <time>2012-10-27T12:21:08Z</time>
      </trkpt>
      <trkpt lat="42.412366000" lon="-2.644481000">
        <ele>657.90</ele>
        <time>2012-10-27T12:21:33Z</time>
      </trkpt>
      <trkpt lat="42.412440000" lon="-2.644047000">
        <ele>660.70</ele>
        <time>2012-10-27T12:21:45Z</time>
      </trkpt>
      <trkpt lat="42.412335000" lon="-2.643498000">
        <ele>662.60</ele>
        <time>2012-10-27T12:21:59Z</time>
      </trkpt>
      <trkpt lat="42.412234000" lon="-2.643229000">
        <ele>661.40</ele>
        <time>2012-10-27T12:22:06Z</time>
      </trkpt>
      <trkpt lat="42.412057000" lon="-2.642984000">
        <ele>661.40</ele>
        <time>2012-10-27T12:22:16Z</time>
      </trkpt>
      <trkpt lat="42.412019000" lon="-2.642801000">
        <ele>660.60</ele>
        <time>2012-10-27T12:22:20Z</time>
      </trkpt>
      <trkpt lat="42.411894000" lon="-2.642593000">
        <ele>658.00</ele>
        <time>2012-10-27T12:22:25Z</time>
      </trkpt>
      <trkpt lat="42.411764000" lon="-2.642509000">
        <ele>655.30</ele>
        <time>2012-10-27T12:22:30Z</time>
      </trkpt>
      <trkpt lat="42.411597000" lon="-2.642221000">
        <ele>650.70</ele>
        <time>2012-10-27T12:22:39Z</time>
      </trkpt>
      <trkpt lat="42.411418000" lon="-2.641947000">
        <ele>649.40</ele>
        <time>2012-10-27T12:22:46Z</time>
      </trkpt>
      <trkpt lat="42.411353000" lon="-2.641722000">
        <ele>648.10</ele>
        <time>2012-10-27T12:22:51Z</time>
      </trkpt>
      <trkpt lat="42.411326000" lon="-2.641516000">
        <ele>646.60</ele>
        <time>2012-10-27T12:22:53Z</time>
      </trkpt>
      <trkpt lat="42.411321000" lon="-2.640416000">
        <ele>641.20</ele>
        <time>2012-10-27T12:23:05Z</time>
      </trkpt>
      <trkpt lat="42.411298000" lon="-2.639821000">
        <ele>639.30</ele>
        <time>2012-10-27T12:23:12Z</time>
      </trkpt>
      <trkpt lat="42.411457000" lon="-2.638449000">
        <ele>634.30</ele>
        <time>2012-10-27T12:23:26Z</time>
      </trkpt>
      <trkpt lat="42.411427000" lon="-2.637442000">
        <ele>630.50</ele>
        <time>2012-10-27T12:23:33Z</time>
      </trkpt>
      <trkpt lat="42.411487000" lon="-2.636909000">
        <ele>627.60</ele>
        <time>2012-10-27T12:23:38Z</time>
      </trkpt>
      <trkpt lat="42.411407000" lon="-2.635464000">
        <ele>624.50</ele>
        <time>2012-10-27T12:23:48Z</time>
      </trkpt>
      <trkpt lat="42.411369000" lon="-2.634636000">
        <ele>624.10</ele>
        <time>2012-10-27T12:23:57Z</time>
      </trkpt>
      <trkpt lat="42.411553000" lon="-2.634017000">
        <ele>624.70</ele>
        <time>2012-10-27T12:24:04Z</time>
      </trkpt>
      <trkpt lat="42.411535000" lon="-2.632823000">
        <ele>621.10</ele>
        <time>2012-10-27T12:24:16Z</time>
      </trkpt>
      <trkpt lat="42.411555000" lon="-2.631083000">
        <ele>619.80</ele>
        <time>2012-10-27T12:24:34Z</time>
      </trkpt>
      <trkpt lat="42.411587000" lon="-2.629810000">
        <ele>616.90</ele>
        <time>2012-10-27T12:24:46Z</time>
      </trkpt>
      <trkpt lat="42.411596000" lon="-2.629497000">
        <ele>616.00</ele>
        <time>2012-10-27T12:24:49Z</time>
      </trkpt>
      <trkpt lat="42.411576000" lon="-2.629198000">
        <ele>615.50</ele>
        <time>2012-10-27T12:24:53Z</time>
      </trkpt>
      <trkpt lat="42.411723000" lon="-2.628109000">
        <ele>616.40</ele>
        <time>2012-10-27T12:25:05Z</time>
      </trkpt>
      <trkpt lat="42.411735000" lon="-2.628039000">
        <ele>616.20</ele>
        <time>2012-10-27T12:25:14Z</time>
      </trkpt>
      <trkpt lat="42.411773000" lon="-2.627854000">
        <ele>614.10</ele>
        <time>2012-10-27T12:25:21Z</time>
      </trkpt>
      <trkpt lat="42.411744000" lon="-2.627408000">
        <ele>611.80</ele>
        <time>2012-10-27T12:25:33Z</time>
      </trkpt>
      <trkpt lat="42.411753000" lon="-2.627125000">
        <ele>611.80</ele>
        <time>2012-10-27T12:25:40Z</time>
      </trkpt>
      <trkpt lat="42.411815000" lon="-2.626001000">
        <ele>611.10</ele>
        <time>2012-10-27T12:25:57Z</time>
      </trkpt>
      <trkpt lat="42.411883000" lon="-2.624700000">
        <ele>609.40</ele>
        <time>2012-10-27T12:26:13Z</time>
      </trkpt>
      <trkpt lat="42.411980000" lon="-2.623573000">
        <ele>607.60</ele>
        <time>2012-10-27T12:26:27Z</time>
      </trkpt>
      <trkpt lat="42.411986000" lon="-2.622802000">
        <ele>606.20</ele>
        <time>2012-10-27T12:26:36Z</time>
      </trkpt>
      <trkpt lat="42.412029000" lon="-2.622516000">
        <ele>606.40</ele>
        <time>2012-10-27T12:26:41Z</time>
      </trkpt>
      <trkpt lat="42.412077000" lon="-2.622416000">
        <ele>606.70</ele>
        <time>2012-10-27T12:26:43Z</time>
      </trkpt>
      <trkpt lat="42.412104000" lon="-2.622177000">
        <ele>608.20</ele>
        <time>2012-10-27T12:26:46Z</time>
      </trkpt>
      <trkpt lat="42.412047000" lon="-2.621690000">
        <ele>610.70</ele>
        <time>2012-10-27T12:26:55Z</time>
      </trkpt>
      <trkpt lat="42.412040000" lon="-2.621422000">
        <ele>611.90</ele>
        <time>2012-10-27T12:27:00Z</time>
      </trkpt>
      <trkpt lat="42.412096000" lon="-2.620349000">
        <ele>607.30</ele>
        <time>2012-10-27T12:27:16Z</time>
      </trkpt>
      <trkpt lat="42.412125000" lon="-2.618884000">
        <ele>599.80</ele>
        <time>2012-10-27T12:27:30Z</time>
      </trkpt>
      <trkpt lat="42.412166000" lon="-2.616717000">
        <ele>597.90</ele>
        <time>2012-10-27T12:27:52Z</time>
      </trkpt>
      <trkpt lat="42.412190000" lon="-2.614770000">
        <ele>595.90</ele>
        <time>2012-10-27T12:28:13Z</time>
      </trkpt>
      <trkpt lat="42.412325000" lon="-2.612274000">
        <ele>591.70</ele>
        <time>2012-10-27T12:28:38Z</time>
      </trkpt>
      <trkpt lat="42.412735000" lon="-2.610088000">
        <ele>586.50</ele>
        <time>2012-10-27T12:29:00Z</time>
      </trkpt>
      <trkpt lat="42.413350000" lon="-2.608018000">
        <ele>582.20</ele>
        <time>2012-10-27T12:29:19Z</time>
      </trkpt>
      <trkpt lat="42.414143000" lon="-2.605846000">
        <ele>577.80</ele>
        <time>2012-10-27T12:29:42Z</time>
      </trkpt>
      <trkpt lat="42.414814000" lon="-2.603961000">
        <ele>574.50</ele>
        <time>2012-10-27T12:30:03Z</time>
      </trkpt>
      <trkpt lat="42.415361000" lon="-2.602439000">
        <ele>570.90</ele>
        <time>2012-10-27T12:30:20Z</time>
      </trkpt>
      <trkpt lat="42.416040000" lon="-2.600589000">
        <ele>567.40</ele>
        <time>2012-10-27T12:30:41Z</time>
      </trkpt>
      <trkpt lat="42.416828000" lon="-2.598915000">
        <ele>563.00</ele>
        <time>2012-10-27T12:31:02Z</time>
      </trkpt>
      <trkpt lat="42.417400000" lon="-2.597643000">
        <ele>558.50</ele>
        <time>2012-10-27T12:31:16Z</time>
      </trkpt>
      <trkpt lat="42.418379000" lon="-2.595605000">
        <ele>552.90</ele>
        <time>2012-10-27T12:31:39Z</time>
      </trkpt>
      <trkpt lat="42.418540000" lon="-2.595298000">
        <ele>552.80</ele>
        <time>2012-10-27T12:31:44Z</time>
      </trkpt>
      <trkpt lat="42.418634000" lon="-2.595053000">
        <ele>552.50</ele>
        <time>2012-10-27T12:31:46Z</time>
      </trkpt>
      <trkpt lat="42.419055000" lon="-2.594140000">
        <ele>550.70</ele>
        <time>2012-10-27T12:31:58Z</time>
      </trkpt>
      <trkpt lat="42.419646000" lon="-2.592732000">
        <ele>549.70</ele>
        <time>2012-10-27T12:32:19Z</time>
      </trkpt>
      <trkpt lat="42.419872000" lon="-2.592063000">
        <ele>551.70</ele>
        <time>2012-10-27T12:32:33Z</time>
      </trkpt>
      <trkpt lat="42.420044000" lon="-2.591429000">
        <ele>553.40</ele>
        <time>2012-10-27T12:32:45Z</time>
      </trkpt>
      <trkpt lat="42.420210000" lon="-2.590470000">
        <ele>556.60</ele>
        <time>2012-10-27T12:33:06Z</time>
      </trkpt>
      <trkpt lat="42.419984000" lon="-2.590312000">
        <ele>558.00</ele>
        <time>2012-10-27T12:33:15Z</time>
      </trkpt>
      <trkpt lat="42.420026000" lon="-2.590088000">
        <ele>557.40</ele>
        <time>2012-10-27T12:33:22Z</time>
      </trkpt>
      <trkpt lat="42.420157000" lon="-2.589971000">
        <ele>556.70</ele>
        <time>2012-10-27T12:33:25Z</time>
      </trkpt>
      <trkpt lat="42.420268000" lon="-2.589812000">
        <ele>555.70</ele>
        <time>2012-10-27T12:33:30Z</time>
      </trkpt>
      <trkpt lat="42.420322000" lon="-2.589723000">
        <ele>555.50</ele>
        <time>2012-10-27T12:33:32Z</time>
      </trkpt>
      <trkpt lat="42.420529000" lon="-2.589584000">
        <ele>554.10</ele>
        <time>2012-10-27T12:33:37Z</time>
      </trkpt>
      <trkpt lat="42.420705000" lon="-2.589270000">
        <ele>553.50</ele>
        <time>2012-10-27T12:33:42Z</time>
      </trkpt>
      <trkpt lat="42.421184000" lon="-2.588144000">
        <ele>551.10</ele>
        <time>2012-10-27T12:34:02Z</time>
      </trkpt>
      <trkpt lat="42.421765000" lon="-2.586775000">
        <ele>546.30</ele>
        <time>2012-10-27T12:34:21Z</time>
      </trkpt>
      <trkpt lat="42.422486000" lon="-2.585100000">
        <ele>540.80</ele>
        <time>2012-10-27T12:34:40Z</time>
      </trkpt>
      <trkpt lat="42.423407000" lon="-2.582935000">
        <ele>534.40</ele>
        <time>2012-10-27T12:35:04Z</time>
      </trkpt>
      <trkpt lat="42.424214000" lon="-2.581059000">
        <ele>528.90</ele>
        <time>2012-10-27T12:35:25Z</time>
      </trkpt>
      <trkpt lat="42.424886000" lon="-2.579477000">
        <ele>523.40</ele>
        <time>2012-10-27T12:35:43Z</time>
      </trkpt>
      <trkpt lat="42.425800000" lon="-2.577342000">
        <ele>517.60</ele>
        <time>2012-10-27T12:36:07Z</time>
      </trkpt>
      <trkpt lat="42.426766000" lon="-2.575096000">
        <ele>511.60</ele>
        <time>2012-10-27T12:36:33Z</time>
      </trkpt>
      <trkpt lat="42.427602000" lon="-2.573297000">
        <ele>506.70</ele>
        <time>2012-10-27T12:36:56Z</time>
      </trkpt>
      <trkpt lat="42.428440000" lon="-2.571561000">
        <ele>505.00</ele>
        <time>2012-10-27T12:37:18Z</time>
      </trkpt>
      <trkpt lat="42.429449000" lon="-2.569440000">
        <ele>503.10</ele>
        <time>2012-10-27T12:37:48Z</time>
      </trkpt>
      <trkpt lat="42.430066000" lon="-2.568091000">
        <ele>502.50</ele>
        <time>2012-10-27T12:38:09Z</time>
      </trkpt>
      <trkpt lat="42.430282000" lon="-2.567009000">
        <ele>501.00</ele>
        <time>2012-10-27T12:38:23Z</time>
      </trkpt>
      <trkpt lat="42.430475000" lon="-2.565812000">
        <ele>500.70</ele>
        <time>2012-10-27T12:38:35Z</time>
      </trkpt>
      <trkpt lat="42.430634000" lon="-2.564876000">
        <ele>501.70</ele>
        <time>2012-10-27T12:38:49Z</time>
      </trkpt>
      <trkpt lat="42.430608000" lon="-2.564534000">
        <ele>502.40</ele>
        <time>2012-10-27T12:38:54Z</time>
      </trkpt>
      <trkpt lat="42.430603000" lon="-2.564458000">
        <ele>503.00</ele>
        <time>2012-10-27T12:38:56Z</time>
      </trkpt>
      <trkpt lat="42.430477000" lon="-2.564328000">
        <ele>504.00</ele>
        <time>2012-10-27T12:39:01Z</time>
      </trkpt>
      <trkpt lat="42.430223000" lon="-2.564105000">
        <ele>504.70</ele>
        <time>2012-10-27T12:39:06Z</time>
      </trkpt>
      <trkpt lat="42.430014000" lon="-2.563996000">
        <ele>504.80</ele>
        <time>2012-10-27T12:39:10Z</time>
      </trkpt>
      <trkpt lat="42.429616000" lon="-2.563515000">
        <ele>504.80</ele>
        <time>2012-10-27T12:39:19Z</time>
      </trkpt>
      <trkpt lat="42.429446000" lon="-2.563132000">
        <ele>505.90</ele>
        <time>2012-10-27T12:39:26Z</time>
      </trkpt>
      <trkpt lat="42.429372000" lon="-2.562965000">
        <ele>506.40</ele>
        <time>2012-10-27T12:39:29Z</time>
      </trkpt>
      <trkpt lat="42.429144000" lon="-2.562270000">
        <ele>506.40</ele>
        <time>2012-10-27T12:39:41Z</time>
      </trkpt>
      <trkpt lat="42.429125000" lon="-2.562029000">
        <ele>504.80</ele>
        <time>2012-10-27T12:39:45Z</time>
      </trkpt>
      <trkpt lat="42.429129000" lon="-2.561555000">
        <ele>503.60</ele>
        <time>2012-10-27T12:39:59Z</time>
      </trkpt>
      <trkpt lat="42.429111000" lon="-2.561520000">
        <ele>502.40</ele>
        <time>2012-10-27T12:42:20Z</time>
      </trkpt>
      <trkpt lat="42.428906000" lon="-2.561466000">
        <ele>499.70</ele>
        <time>2012-10-27T12:42:29Z</time>
      </trkpt>
      <trkpt lat="42.428815000" lon="-2.561208000">
        <ele>499.50</ele>
        <time>2012-10-27T12:42:37Z</time>
      </trkpt>
      <trkpt lat="42.428857000" lon="-2.560187000">
        <ele>498.10</ele>
        <time>2012-10-27T12:42:51Z</time>
      </trkpt>
      <trkpt lat="42.429028000" lon="-2.558182000">
        <ele>493.90</ele>
        <time>2012-10-27T12:43:14Z</time>
      </trkpt>
      <trkpt lat="42.429120000" lon="-2.557230000">
        <ele>489.70</ele>
        <time>2012-10-27T12:43:23Z</time>
      </trkpt>
      <trkpt lat="42.429398000" lon="-2.556890000">
        <ele>487.70</ele>
        <time>2012-10-27T12:43:28Z</time>
      </trkpt>
      <trkpt lat="42.429599000" lon="-2.556310000">
        <ele>483.70</ele>
        <time>2012-10-27T12:43:35Z</time>
      </trkpt>
      <trkpt lat="42.429739000" lon="-2.554864000">
        <ele>477.30</ele>
        <time>2012-10-27T12:43:47Z</time>
      </trkpt>
      <trkpt lat="42.429886000" lon="-2.553715000">
        <ele>475.30</ele>
        <time>2012-10-27T12:43:57Z</time>
      </trkpt>
      <trkpt lat="42.429797000" lon="-2.552757000">
        <ele>474.50</ele>
        <time>2012-10-27T12:44:06Z</time>
      </trkpt>
      <trkpt lat="42.429664000" lon="-2.552454000">
        <ele>474.30</ele>
        <time>2012-10-27T12:44:10Z</time>
      </trkpt>
      <trkpt lat="42.429741000" lon="-2.552042000">
        <ele>473.80</ele>
        <time>2012-10-27T12:44:15Z</time>
      </trkpt>
      <trkpt lat="42.429801000" lon="-2.552015000">
        <ele>473.90</ele>
        <time>2012-10-27T12:44:17Z</time>
      </trkpt>
      <trkpt lat="42.430090000" lon="-2.551732000">
        <ele>473.40</ele>
        <time>2012-10-27T12:44:22Z</time>
      </trkpt>
      <trkpt lat="42.430415000" lon="-2.550774000">
        <ele>472.90</ele>
        <time>2012-10-27T12:44:36Z</time>
      </trkpt>
      <trkpt lat="42.430430000" lon="-2.550524000">
        <ele>473.00</ele>
        <time>2012-10-27T12:44:39Z</time>
      </trkpt>
      <trkpt lat="42.430488000" lon="-2.550198000">
        <ele>472.70</ele>
        <time>2012-10-27T12:44:43Z</time>
      </trkpt>
      <trkpt lat="42.430964000" lon="-2.548705000">
        <ele>472.30</ele>
        <time>2012-10-27T12:45:02Z</time>
      </trkpt>
      <trkpt lat="42.431633000" lon="-2.547186000">
        <ele>471.50</ele>
        <time>2012-10-27T12:45:23Z</time>
      </trkpt>
      <trkpt lat="42.431805000" lon="-2.546854000">
        <ele>471.40</ele>
        <time>2012-10-27T12:45:28Z</time>
      </trkpt>
      <trkpt lat="42.431967000" lon="-2.546208000">
        <ele>473.80</ele>
        <time>2012-10-27T12:45:38Z</time>
      </trkpt>
      <trkpt lat="42.432087000" lon="-2.545996000">
        <ele>474.20</ele>
        <time>2012-10-27T12:45:44Z</time>
      </trkpt>
      <trkpt lat="42.432591000" lon="-2.545593000">
        <ele>478.20</ele>
        <time>2012-10-27T12:45:59Z</time>
      </trkpt>
      <trkpt lat="42.433273000" lon="-2.545101000">
        <ele>481.50</ele>
        <time>2012-10-27T12:46:22Z</time>
      </trkpt>
      <trkpt lat="42.433311000" lon="-2.545073000">
        <ele>481.40</ele>
        <time>2012-10-27T12:46:22Z</time>
      </trkpt>
      <trkpt lat="42.433405000" lon="-2.544813000">
        <ele>479.90</ele>
        <time>2012-10-27T12:46:27Z</time>
      </trkpt>
      <trkpt lat="42.433375000" lon="-2.544397000">
        <ele>478.60</ele>
        <time>2012-10-27T12:46:34Z</time>
      </trkpt>
      <trkpt lat="42.433503000" lon="-2.543897000">
        <ele>475.70</ele>
        <time>2012-10-27T12:46:39Z</time>
      </trkpt>
      <trkpt lat="42.434107000" lon="-2.543053000">
        <ele>475.60</ele>
        <time>2012-10-27T12:46:53Z</time>
      </trkpt>
      <trkpt lat="42.434776000" lon="-2.542165000">
        <ele>477.30</ele>
        <time>2012-10-27T12:47:14Z</time>
      </trkpt>
      <trkpt lat="42.435035000" lon="-2.541530000">
        <ele>481.60</ele>
        <time>2012-10-27T12:47:32Z</time>
      </trkpt>
      <trkpt lat="42.435373000" lon="-2.540942000">
        <ele>485.50</ele>
        <time>2012-10-27T12:47:49Z</time>
      </trkpt>
      <trkpt lat="42.435839000" lon="-2.540269000">
        <ele>487.80</ele>
        <time>2012-10-27T12:48:10Z</time>
      </trkpt>
      <trkpt lat="42.436220000" lon="-2.539765000">
        <ele>491.40</ele>
        <time>2012-10-27T12:48:31Z</time>
      </trkpt>
      <trkpt lat="42.436518000" lon="-2.539472000">
        <ele>494.20</ele>
        <time>2012-10-27T12:48:48Z</time>
      </trkpt>
      <trkpt lat="42.436819000" lon="-2.539290000">
        <ele>495.00</ele>
        <time>2012-10-27T12:49:04Z</time>
      </trkpt>
      <trkpt lat="42.437132000" lon="-2.538955000">
        <ele>495.10</ele>
        <time>2012-10-27T12:49:18Z</time>
      </trkpt>
      <trkpt lat="42.437498000" lon="-2.538426000">
        <ele>494.10</ele>
        <time>2012-10-27T12:49:32Z</time>
      </trkpt>
      <trkpt lat="42.437625000" lon="-2.538273000">
        <ele>493.80</ele>
        <time>2012-10-27T12:49:37Z</time>
      </trkpt>
      <trkpt lat="42.437909000" lon="-2.537448000">
        <ele>491.80</ele>
        <time>2012-10-27T12:49:51Z</time>
      </trkpt>
      <trkpt lat="42.437931000" lon="-2.537384000">
        <ele>491.80</ele>
        <time>2012-10-27T12:49:51Z</time>
      </trkpt>
      <trkpt lat="42.437959000" lon="-2.537116000">
        <ele>491.90</ele>
        <time>2012-10-27T12:49:56Z</time>
      </trkpt>
      <trkpt lat="42.438203000" lon="-2.536254000">
        <ele>493.00</ele>
        <time>2012-10-27T12:50:12Z</time>
      </trkpt>
      <trkpt lat="42.438484000" lon="-2.535486000">
        <ele>495.20</ele>
        <time>2012-10-27T12:50:31Z</time>
      </trkpt>
      <trkpt lat="42.438593000" lon="-2.534719000">
        <ele>496.40</ele>
        <time>2012-10-27T12:50:50Z</time>
      </trkpt>
      <trkpt lat="42.438636000" lon="-2.534146000">
        <ele>498.60</ele>
        <time>2012-10-27T12:51:02Z</time>
      </trkpt>
      <trkpt lat="42.438773000" lon="-2.533340000">
        <ele>497.50</ele>
        <time>2012-10-27T12:51:16Z</time>
      </trkpt>
      <trkpt lat="42.438850000" lon="-2.532381000">
        <ele>499.70</ele>
        <time>2012-10-27T12:51:36Z</time>
      </trkpt>
      <trkpt lat="42.439053000" lon="-2.531466000">
        <ele>499.40</ele>
        <time>2012-10-27T12:51:55Z</time>
      </trkpt>
      <trkpt lat="42.439226000" lon="-2.530833000">
        <ele>497.20</ele>
        <time>2012-10-27T12:52:10Z</time>
      </trkpt>
      <trkpt lat="42.439319000" lon="-2.530223000">
        <ele>499.70</ele>
        <time>2012-10-27T12:52:24Z</time>
      </trkpt>
      <trkpt lat="42.439478000" lon="-2.529436000">
        <ele>503.60</ele>
        <time>2012-10-27T12:52:40Z</time>
      </trkpt>
      <trkpt lat="42.439575000" lon="-2.528607000">
        <ele>507.00</ele>
        <time>2012-10-27T12:53:01Z</time>
      </trkpt>
      <trkpt lat="42.439695000" lon="-2.527836000">
        <ele>508.20</ele>
        <time>2012-10-27T12:53:20Z</time>
      </trkpt>
      <trkpt lat="42.439763000" lon="-2.527065000">
        <ele>514.80</ele>
        <time>2012-10-27T12:53:41Z</time>
      </trkpt>
      <trkpt lat="42.439780000" lon="-2.526501000">
        <ele>517.20</ele>
        <time>2012-10-27T12:53:57Z</time>
      </trkpt>
      <trkpt lat="42.439856000" lon="-2.525424000">
        <ele>518.60</ele>
        <time>2012-10-27T12:54:23Z</time>
      </trkpt>
      <trkpt lat="42.439905000" lon="-2.524870000">
        <ele>518.50</ele>
        <time>2012-10-27T12:54:38Z</time>
      </trkpt>
      <trkpt lat="42.440034000" lon="-2.524162000">
        <ele>513.80</ele>
        <time>2012-10-27T12:54:51Z</time>
      </trkpt>
      <trkpt lat="42.440067000" lon="-2.523994000">
        <ele>513.10</ele>
        <time>2012-10-27T12:54:52Z</time>
      </trkpt>
      <trkpt lat="42.440047000" lon="-2.523647000">
        <ele>511.80</ele>
        <time>2012-10-27T12:54:56Z</time>
      </trkpt>
      <trkpt lat="42.439878000" lon="-2.523164000">
        <ele>510.20</ele>
        <time>2012-10-27T12:55:03Z</time>
      </trkpt>
      <trkpt lat="42.439691000" lon="-2.522879000">
        <ele>508.30</ele>
        <time>2012-10-27T12:55:06Z</time>
      </trkpt>
      <trkpt lat="42.439272000" lon="-2.521726000">
        <ele>501.80</ele>
        <time>2012-10-27T12:55:18Z</time>
      </trkpt>
      <trkpt lat="42.439115000" lon="-2.521219000">
        <ele>499.00</ele>
        <time>2012-10-27T12:55:24Z</time>
      </trkpt>
      <trkpt lat="42.438859000" lon="-2.520765000">
        <ele>495.30</ele>
        <time>2012-10-27T12:55:31Z</time>
      </trkpt>
      <trkpt lat="42.438548000" lon="-2.519991000">
        <ele>492.40</ele>
        <time>2012-10-27T12:55:38Z</time>
      </trkpt>
      <trkpt lat="42.438334000" lon="-2.519688000">
        <ele>490.60</ele>
        <time>2012-10-27T12:55:43Z</time>
      </trkpt>
      <trkpt lat="42.438043000" lon="-2.519145000">
        <ele>485.80</ele>
        <time>2012-10-27T12:55:48Z</time>
      </trkpt>
      <trkpt lat="42.437792000" lon="-2.518350000">
        <ele>482.00</ele>
        <time>2012-10-27T12:56:00Z</time>
      </trkpt>
      <trkpt lat="42.437634000" lon="-2.517909000">
        <ele>480.70</ele>
        <time>2012-10-27T12:56:04Z</time>
      </trkpt>
      <trkpt lat="42.436963000" lon="-2.516912000">
        <ele>479.90</ele>
        <time>2012-10-27T12:56:18Z</time>
      </trkpt>
      <trkpt lat="42.436757000" lon="-2.516601000">
        <ele>479.50</ele>
        <time>2012-10-27T12:56:23Z</time>
      </trkpt>
      <trkpt lat="42.436626000" lon="-2.516429000">
        <ele>478.50</ele>
        <time>2012-10-27T12:56:26Z</time>
      </trkpt>
      <trkpt lat="42.436591000" lon="-2.516114000">
        <ele>475.20</ele>
        <time>2012-10-27T12:56:32Z</time>
      </trkpt>
      <trkpt lat="42.436728000" lon="-2.515901000">
        <ele>472.60</ele>
        <time>2012-10-27T12:56:35Z</time>
      </trkpt>
      <trkpt lat="42.437103000" lon="-2.515553000">
        <ele>466.70</ele>
        <time>2012-10-27T12:56:40Z</time>
      </trkpt>
      <trkpt lat="42.437465000" lon="-2.515007000">
        <ele>460.70</ele>
        <time>2012-10-27T12:56:44Z</time>
      </trkpt>
      <trkpt lat="42.437679000" lon="-2.514536000">
        <ele>456.50</ele>
        <time>2012-10-27T12:56:49Z</time>
      </trkpt>
      <trkpt lat="42.438024000" lon="-2.514425000">
        <ele>453.00</ele>
        <time>2012-10-27T12:56:54Z</time>
      </trkpt>
      <trkpt lat="42.438436000" lon="-2.514735000">
        <ele>449.30</ele>
        <time>2012-10-27T12:57:01Z</time>
      </trkpt>
      <trkpt lat="42.438698000" lon="-2.515067000">
        <ele>447.00</ele>
        <time>2012-10-27T12:57:05Z</time>
      </trkpt>
      <trkpt lat="42.439269000" lon="-2.515299000">
        <ele>445.50</ele>
        <time>2012-10-27T12:57:12Z</time>
      </trkpt>
      <trkpt lat="42.439375000" lon="-2.515246000">
        <ele>445.40</ele>
        <time>2012-10-27T12:57:15Z</time>
      </trkpt>
      <trkpt lat="42.440265000" lon="-2.514870000">
        <ele>444.40</ele>
        <time>2012-10-27T12:57:31Z</time>
      </trkpt>
      <trkpt lat="42.440981000" lon="-2.514805000">
        <ele>443.60</ele>
        <time>2012-10-27T12:57:45Z</time>
      </trkpt>
      <trkpt lat="42.441535000" lon="-2.514757000">
        <ele>442.70</ele>
        <time>2012-10-27T12:57:59Z</time>
      </trkpt>
      <trkpt lat="42.441574000" lon="-2.514516000">
        <ele>441.40</ele>
        <time>2012-10-27T12:58:04Z</time>
      </trkpt>
      <trkpt lat="42.441403000" lon="-2.513913000">
        <ele>440.00</ele>
        <time>2012-10-27T12:58:14Z</time>
      </trkpt>
      <trkpt lat="42.441327000" lon="-2.513689000">
        <ele>439.50</ele>
        <time>2012-10-27T12:58:18Z</time>
      </trkpt>
      <trkpt lat="42.441370000" lon="-2.513386000">
        <ele>438.40</ele>
        <time>2012-10-27T12:58:25Z</time>
      </trkpt>
      <trkpt lat="42.441507000" lon="-2.513336000">
        <ele>438.70</ele>
        <time>2012-10-27T12:58:30Z</time>
      </trkpt>
      <trkpt lat="42.441580000" lon="-2.513365000">
        <ele>438.90</ele>
        <time>2012-10-27T12:58:32Z</time>
      </trkpt>
      <trkpt lat="42.441777000" lon="-2.513338000">
        <ele>438.70</ele>
        <time>2012-10-27T12:58:37Z</time>
      </trkpt>
      <trkpt lat="42.442006000" lon="-2.513232000">
        <ele>439.00</ele>
        <time>2012-10-27T12:58:42Z</time>
      </trkpt>
      <trkpt lat="42.442181000" lon="-2.513192000">
        <ele>439.20</ele>
        <time>2012-10-27T12:58:46Z</time>
      </trkpt>
      <trkpt lat="42.442821000" lon="-2.513276000">
        <ele>441.10</ele>
        <time>2012-10-27T12:59:00Z</time>
      </trkpt>
      <trkpt lat="42.443231000" lon="-2.513205000">
        <ele>438.60</ele>
        <time>2012-10-27T12:59:08Z</time>
      </trkpt>
      <trkpt lat="42.443520000" lon="-2.512790000">
        <ele>437.10</ele>
        <time>2012-10-27T12:59:15Z</time>
      </trkpt>
      <trkpt lat="42.443593000" lon="-2.512674000">
        <ele>437.00</ele>
        <time>2012-10-27T12:59:17Z</time>
      </trkpt>
      <trkpt lat="42.443747000" lon="-2.512382000">
        <ele>437.00</ele>
        <time>2012-10-27T12:59:22Z</time>
      </trkpt>
      <trkpt lat="42.443919000" lon="-2.512123000">
        <ele>436.40</ele>
        <time>2012-10-27T12:59:28Z</time>
      </trkpt>
      <trkpt lat="42.444167000" lon="-2.512257000">
        <ele>433.70</ele>
        <time>2012-10-27T12:59:35Z</time>
      </trkpt>
      <trkpt lat="42.444245000" lon="-2.512545000">
        <ele>434.80</ele>
        <time>2012-10-27T12:59:40Z</time>
      </trkpt>
      <trkpt lat="42.444398000" lon="-2.513176000">
        <ele>437.20</ele>
        <time>2012-10-27T12:59:50Z</time>
      </trkpt>
      <trkpt lat="42.444710000" lon="-2.513336000">
        <ele>436.60</ele>
        <time>2012-10-27T12:59:59Z</time>
      </trkpt>
      <trkpt lat="42.444868000" lon="-2.513210000">
        <ele>437.10</ele>
        <time>2012-10-27T13:00:04Z</time>
      </trkpt>
      <trkpt lat="42.444978000" lon="-2.512955000">
        <ele>436.50</ele>
        <time>2012-10-27T13:00:09Z</time>
      </trkpt>
      <trkpt lat="42.445049000" lon="-2.512688000">
        <ele>436.10</ele>
        <time>2012-10-27T13:00:13Z</time>
      </trkpt>
      <trkpt lat="42.445249000" lon="-2.512309000">
        <ele>436.30</ele>
        <time>2012-10-27T13:00:22Z</time>
      </trkpt>
      <trkpt lat="42.445605000" lon="-2.511487000">
        <ele>436.90</ele>
        <time>2012-10-27T13:00:37Z</time>
      </trkpt>
      <trkpt lat="42.446013000" lon="-2.510847000">
        <ele>437.90</ele>
        <time>2012-10-27T13:00:53Z</time>
      </trkpt>
      <trkpt lat="42.446063000" lon="-2.510752000">
        <ele>438.00</ele>
        <time>2012-10-27T13:00:55Z</time>
      </trkpt>
      <trkpt lat="42.446144000" lon="-2.510479000">
        <ele>437.30</ele>
        <time>2012-10-27T13:01:00Z</time>
      </trkpt>
      <trkpt lat="42.446484000" lon="-2.509715000">
        <ele>435.30</ele>
        <time>2012-10-27T13:01:14Z</time>
      </trkpt>
      <trkpt lat="42.446555000" lon="-2.509486000">
        <ele>434.20</ele>
        <time>2012-10-27T13:01:17Z</time>
      </trkpt>
      <trkpt lat="42.446946000" lon="-2.508747000">
        <ele>434.50</ele>
        <time>2012-10-27T13:01:31Z</time>
      </trkpt>
      <trkpt lat="42.447022000" lon="-2.508569000">
        <ele>434.20</ele>
        <time>2012-10-27T13:01:35Z</time>
      </trkpt>
      <trkpt lat="42.447141000" lon="-2.508024000">
        <ele>435.20</ele>
        <time>2012-10-27T13:01:43Z</time>
      </trkpt>
      <trkpt lat="42.446957000" lon="-2.507208000">
        <ele>433.50</ele>
        <time>2012-10-27T13:01:56Z</time>
      </trkpt>
      <trkpt lat="42.446748000" lon="-2.506508000">
        <ele>433.00</ele>
        <time>2012-10-27T13:02:06Z</time>
      </trkpt>
      <trkpt lat="42.446707000" lon="-2.505725000">
        <ele>434.80</ele>
        <time>2012-10-27T13:02:18Z</time>
      </trkpt>
      <trkpt lat="42.446759000" lon="-2.505356000">
        <ele>434.20</ele>
        <time>2012-10-27T13:02:24Z</time>
      </trkpt>
      <trkpt lat="42.446945000" lon="-2.505091000">
        <ele>435.70</ele>
        <time>2012-10-27T13:02:34Z</time>
      </trkpt>
      <trkpt lat="42.447392000" lon="-2.504911000">
        <ele>436.20</ele>
        <time>2012-10-27T13:02:46Z</time>
      </trkpt>
      <trkpt lat="42.447435000" lon="-2.504893000">
        <ele>436.30</ele>
        <time>2012-10-27T13:02:48Z</time>
      </trkpt>
      <trkpt lat="42.447763000" lon="-2.504782000">
        <ele>435.10</ele>
        <time>2012-10-27T13:02:55Z</time>
      </trkpt>
      <trkpt lat="42.447918000" lon="-2.504691000">
        <ele>437.30</ele>
        <time>2012-10-27T13:03:00Z</time>
      </trkpt>
      <trkpt lat="42.448027000" lon="-2.504495000">
        <ele>437.10</ele>
        <time>2012-10-27T13:03:05Z</time>
      </trkpt>
      <trkpt lat="42.448046000" lon="-2.504259000">
        <ele>432.20</ele>
        <time>2012-10-27T13:03:09Z</time>
      </trkpt>
      <trkpt lat="42.448115000" lon="-2.503667000">
        <ele>429.00</ele>
        <time>2012-10-27T13:03:16Z</time>
      </trkpt>
      <trkpt lat="42.447954000" lon="-2.502899000">
        <ele>430.80</ele>
        <time>2012-10-27T13:03:26Z</time>
      </trkpt>
      <trkpt lat="42.447861000" lon="-2.502644000">
        <ele>431.70</ele>
        <time>2012-10-27T13:03:30Z</time>
      </trkpt>
      <trkpt lat="42.447788000" lon="-2.502387000">
        <ele>432.50</ele>
        <time>2012-10-27T13:03:33Z</time>
      </trkpt>
      <trkpt lat="42.447285000" lon="-2.501004000">
        <ele>433.70</ele>
        <time>2012-10-27T13:03:56Z</time>
      </trkpt>
      <trkpt lat="42.447145000" lon="-2.500585000">
        <ele>433.30</ele>
        <time>2012-10-27T13:04:03Z</time>
      </trkpt>
      <trkpt lat="42.447346000" lon="-2.500360000">
        <ele>432.30</ele>
        <time>2012-10-27T13:04:10Z</time>
      </trkpt>
      <trkpt lat="42.447507000" lon="-2.500162000">
        <ele>431.30</ele>
        <time>2012-10-27T13:04:13Z</time>
      </trkpt>
      <trkpt lat="42.447581000" lon="-2.500025000">
        <ele>430.00</ele>
        <time>2012-10-27T13:04:15Z</time>
      </trkpt>
      <trkpt lat="42.447770000" lon="-2.499885000">
        <ele>427.40</ele>
        <time>2012-10-27T13:04:20Z</time>
      </trkpt>
      <trkpt lat="42.448070000" lon="-2.499797000">
        <ele>424.40</ele>
        <time>2012-10-27T13:04:27Z</time>
      </trkpt>
      <trkpt lat="42.448195000" lon="-2.499603000">
        <ele>424.90</ele>
        <time>2012-10-27T13:04:31Z</time>
      </trkpt>
      <trkpt lat="42.448338000" lon="-2.499186000">
        <ele>426.90</ele>
        <time>2012-10-27T13:04:38Z</time>
      </trkpt>
      <trkpt lat="42.448524000" lon="-2.499008000">
        <ele>426.90</ele>
        <time>2012-10-27T13:04:43Z</time>
      </trkpt>
      <trkpt lat="42.448700000" lon="-2.498783000">
        <ele>427.70</ele>
        <time>2012-10-27T13:04:48Z</time>
      </trkpt>
      <trkpt lat="42.448767000" lon="-2.498611000">
        <ele>427.20</ele>
        <time>2012-10-27T13:04:52Z</time>
      </trkpt>
      <trkpt lat="42.448778000" lon="-2.498306000">
        <ele>428.10</ele>
        <time>2012-10-27T13:04:57Z</time>
      </trkpt>
      <trkpt lat="42.448920000" lon="-2.498204000">
        <ele>428.30</ele>
        <time>2012-10-27T13:05:02Z</time>
      </trkpt>
      <trkpt lat="42.449178000" lon="-2.498219000">
        <ele>429.40</ele>
        <time>2012-10-27T13:05:09Z</time>
      </trkpt>
      <trkpt lat="42.449321000" lon="-2.498149000">
        <ele>429.70</ele>
        <time>2012-10-27T13:05:14Z</time>
      </trkpt>
      <trkpt lat="42.449780000" lon="-2.497767000">
        <ele>428.70</ele>
        <time>2012-10-27T13:05:25Z</time>
      </trkpt>
      <trkpt lat="42.449882000" lon="-2.497499000">
        <ele>427.80</ele>
        <time>2012-10-27T13:05:30Z</time>
      </trkpt>
      <trkpt lat="42.449936000" lon="-2.496696000">
        <ele>424.70</ele>
        <time>2012-10-27T13:05:39Z</time>
      </trkpt>
      <trkpt lat="42.449983000" lon="-2.496207000">
        <ele>423.10</ele>
        <time>2012-10-27T13:05:44Z</time>
      </trkpt>
      <trkpt lat="42.449948000" lon="-2.495288000">
        <ele>419.90</ele>
        <time>2012-10-27T13:05:53Z</time>
      </trkpt>
      <trkpt lat="42.450132000" lon="-2.494882000">
        <ele>417.50</ele>
        <time>2012-10-27T13:06:00Z</time>
      </trkpt>
      <trkpt lat="42.450212000" lon="-2.494932000">
        <ele>416.80</ele>
        <time>2012-10-27T13:06:01Z</time>
      </trkpt>
      <trkpt lat="42.450430000" lon="-2.494843000">
        <ele>415.20</ele>
        <time>2012-10-27T13:06:08Z</time>
      </trkpt>
      <trkpt lat="42.450841000" lon="-2.493559000">
        <ele>414.30</ele>
        <time>2012-10-27T13:06:24Z</time>
      </trkpt>
      <trkpt lat="42.451187000" lon="-2.492197000">
        <ele>414.30</ele>
        <time>2012-10-27T13:06:41Z</time>
      </trkpt>
      <trkpt lat="42.451648000" lon="-2.490398000">
        <ele>412.00</ele>
        <time>2012-10-27T13:07:04Z</time>
      </trkpt>
      <trkpt lat="42.452069000" lon="-2.489257000">
        <ele>410.10</ele>
        <time>2012-10-27T13:07:20Z</time>
      </trkpt>
      <trkpt lat="42.452720000" lon="-2.487571000">
        <ele>409.20</ele>
        <time>2012-10-27T13:07:42Z</time>
      </trkpt>
      <trkpt lat="42.453037000" lon="-2.486769000">
        <ele>408.30</ele>
        <time>2012-10-27T13:07:53Z</time>
      </trkpt>
      <trkpt lat="42.453188000" lon="-2.485298000">
        <ele>407.40</ele>
        <time>2012-10-27T13:08:12Z</time>
      </trkpt>
      <trkpt lat="42.453517000" lon="-2.483222000">
        <ele>406.60</ele>
        <time>2012-10-27T13:08:38Z</time>
      </trkpt>
      <trkpt lat="42.453889000" lon="-2.482004000">
        <ele>405.30</ele>
        <time>2012-10-27T13:08:55Z</time>
      </trkpt>
      <trkpt lat="42.454014000" lon="-2.481651000">
        <ele>405.00</ele>
        <time>2012-10-27T13:09:01Z</time>
      </trkpt>
      <trkpt lat="42.454566000" lon="-2.480488000">
        <ele>405.60</ele>
        <time>2012-10-27T13:09:20Z</time>
      </trkpt>
      <trkpt lat="42.454701000" lon="-2.480207000">
        <ele>405.40</ele>
        <time>2012-10-27T13:09:25Z</time>
      </trkpt>
      <trkpt lat="42.454937000" lon="-2.479750000">
        <ele>405.30</ele>
        <time>2012-10-27T13:09:32Z</time>
      </trkpt>
      <trkpt lat="42.455115000" lon="-2.478725000">
        <ele>404.60</ele>
        <time>2012-10-27T13:09:48Z</time>
      </trkpt>
      <trkpt lat="42.455255000" lon="-2.477977000">
        <ele>403.50</ele>
        <time>2012-10-27T13:09:58Z</time>
      </trkpt>
      <trkpt lat="42.455285000" lon="-2.477765000">
        <ele>403.00</ele>
        <time>2012-10-27T13:10:02Z</time>
      </trkpt>
      <trkpt lat="42.455296000" lon="-2.477522000">
        <ele>402.10</ele>
        <time>2012-10-27T13:10:05Z</time>
      </trkpt>
      <trkpt lat="42.455548000" lon="-2.477306000">
        <ele>400.40</ele>
        <time>2012-10-27T13:10:10Z</time>
      </trkpt>
      <trkpt lat="42.455734000" lon="-2.477234000">
        <ele>399.30</ele>
        <time>2012-10-27T13:10:16Z</time>
      </trkpt>
      <trkpt lat="42.455963000" lon="-2.476567000">
        <ele>400.80</ele>
        <time>2012-10-27T13:10:31Z</time>
      </trkpt>
      <trkpt lat="42.456006000" lon="-2.476339000">
        <ele>402.80</ele>
        <time>2012-10-27T13:10:36Z</time>
      </trkpt>
      <trkpt lat="42.456127000" lon="-2.475763000">
        <ele>405.20</ele>
        <time>2012-10-27T13:10:50Z</time>
      </trkpt>
      <trkpt lat="42.456381000" lon="-2.475307000">
        <ele>408.30</ele>
        <time>2012-10-27T13:11:08Z</time>
      </trkpt>
      <trkpt lat="42.456390000" lon="-2.475299000">
        <ele>408.20</ele>
        <time>2012-10-27T13:11:10Z</time>
      </trkpt>
      <trkpt lat="42.456429000" lon="-2.475118000">
        <ele>408.20</ele>
        <time>2012-10-27T13:11:18Z</time>
      </trkpt>
      <trkpt lat="42.456596000" lon="-2.474683000">
        <ele>407.90</ele>
        <time>2012-10-27T13:11:30Z</time>
      </trkpt>
      <trkpt lat="42.456605000" lon="-2.474630000">
        <ele>407.70</ele>
        <time>2012-10-27T13:11:32Z</time>
      </trkpt>
      <trkpt lat="42.456715000" lon="-2.474338000">
        <ele>407.00</ele>
        <time>2012-10-27T13:11:36Z</time>
      </trkpt>
      <trkpt lat="42.456761000" lon="-2.474138000">
        <ele>406.60</ele>
        <time>2012-10-27T13:11:39Z</time>
      </trkpt>
      <trkpt lat="42.456868000" lon="-2.473741000">
        <ele>404.90</ele>
        <time>2012-10-27T13:11:46Z</time>
      </trkpt>
      <trkpt lat="42.457146000" lon="-2.472767000">
        <ele>401.40</ele>
        <time>2012-10-27T13:11:58Z</time>
      </trkpt>
      <trkpt lat="42.457148000" lon="-2.472749000">
        <ele>401.30</ele>
        <time>2012-10-27T13:12:12Z</time>
      </trkpt>
      <trkpt lat="42.457234000" lon="-2.472469000">
        <ele>401.50</ele>
        <time>2012-10-27T13:12:21Z</time>
      </trkpt>
      <trkpt lat="42.457249000" lon="-2.472423000">
        <ele>401.70</ele>
        <time>2012-10-27T13:12:23Z</time>
      </trkpt>
      <trkpt lat="42.457419000" lon="-2.471765000">
        <ele>401.20</ele>
        <time>2012-10-27T13:12:33Z</time>
      </trkpt>
      <trkpt lat="42.457416000" lon="-2.470895000">
        <ele>401.00</ele>
        <time>2012-10-27T13:12:47Z</time>
      </trkpt>
      <trkpt lat="42.457375000" lon="-2.469668000">
        <ele>400.60</ele>
        <time>2012-10-27T13:13:05Z</time>
      </trkpt>
      <trkpt lat="42.457353000" lon="-2.468487000">
        <ele>399.50</ele>
        <time>2012-10-27T13:13:20Z</time>
      </trkpt>
      <trkpt lat="42.457308000" lon="-2.467058000">
        <ele>398.20</ele>
        <time>2012-10-27T13:13:38Z</time>
      </trkpt>
      <trkpt lat="42.457306000" lon="-2.466252000">
        <ele>399.20</ele>
        <time>2012-10-27T13:13:48Z</time>
      </trkpt>
      <trkpt lat="42.457205000" lon="-2.466092000">
        <ele>399.20</ele>
        <time>2012-10-27T13:13:53Z</time>
      </trkpt>
      <trkpt lat="42.457182000" lon="-2.466020000">
        <ele>398.70</ele>
        <time>2012-10-27T13:14:04Z</time>
      </trkpt>
      <trkpt lat="42.457180000" lon="-2.465732000">
        <ele>400.80</ele>
        <time>2012-10-27T13:15:03Z</time>
      </trkpt>
      <trkpt lat="42.457171000" lon="-2.465288000">
        <ele>398.10</ele>
        <time>2012-10-27T13:15:10Z</time>
      </trkpt>
      <trkpt lat="42.457134000" lon="-2.464139000">
        <ele>396.00</ele>
        <time>2012-10-27T13:15:24Z</time>
      </trkpt>
      <trkpt lat="42.457102000" lon="-2.462981000">
        <ele>396.90</ele>
        <time>2012-10-27T13:15:40Z</time>
      </trkpt>
      <trkpt lat="42.457091000" lon="-2.462907000">
        <ele>396.60</ele>
        <time>2012-10-27T13:15:41Z</time>
      </trkpt>
      <trkpt lat="42.457053000" lon="-2.462878000">
        <ele>397.20</ele>
        <time>2012-10-27T13:15:43Z</time>
      </trkpt>
      <trkpt lat="42.456849000" lon="-2.462905000">
        <ele>400.80</ele>
        <time>2012-10-27T13:15:52Z</time>
      </trkpt>
      <trkpt lat="42.456745000" lon="-2.462378000">
        <ele>399.40</ele>
        <time>2012-10-27T13:16:06Z</time>
      </trkpt>
      <trkpt lat="42.456670000" lon="-2.462366000">
        <ele>397.80</ele>
        <time>2012-10-27T13:16:16Z</time>
      </trkpt>
      <trkpt lat="42.456658000" lon="-2.462373000">
        <ele>399.00</ele>
        <time>2012-10-27T13:16:42Z</time>
      </trkpt>
      <trkpt lat="42.456658000" lon="-2.462371000">
        <ele>399.10</ele>
        <time>2012-10-27T13:16:44Z</time>
      </trkpt>
    </trkseg>
  </trk>
</gpx>
